Wetterdaten: Donnerstag, 01.01.2015
Datum Zeit Temp. Aussen +5cm Feuchte Auss Luftdruck Regen Sonnenschein Regendauer Solar Windben
01.01.2015 00:00 1,0 C -1,1 C 96 % 1035,8 hPa 0,0 l/m 0 min 0 min 0 W/m 8,4 km/h (2 Bft)
01.01.2015 00:02 1,0 C -1,1 C 96 % 1035,8 hPa 0,0 l/m 0 min 0 min 0 W/m 8,4 km/h (2 Bft)
01.01.2015 00:05 1,0 C -1,1 C 96 % 1035,8 hPa 0,0 l/m 0 min 0 min 0 W/m 8,4 km/h (2 Bft)
01.01.2015 00:07 1,0 C -1,1 C 96 % 1035,7 hPa 0,0 l/m 0 min 0 min 0 W/m 8,4 km/h (2 Bft)
01.01.2015 00:08 1,0 C -1,1 C 96 % 1035,7 hPa 0,0 l/m 0 min 0 min 0 W/m 4,2 km/h (1 Bft)
01.01.2015 00:10 1,0 C -1,1 C 96 % 1035,8 hPa 0,0 l/m 0 min 0 min 0 W/m 4,2 km/h (1 Bft)
01.01.2015 00:12 0,9 C -1,1 C 96 % 1035,8 hPa 0,0 l/m 0 min 0 min 0 W/m 8,4 km/h (2 Bft)
01.01.2015 00:14 0,9 C -1,1 C 96 % 1035,8 hPa 0,0 l/m 0 min 0 min 0 W/m 8,4 km/h (2 Bft)
01.01.2015 00:16 0,9 C -1,1 C 96 % 1035,8 hPa 0,0 l/m 0 min 0 min 0 W/m 8,4 km/h (2 Bft)
01.01.2015 00:18 0,9 C -1,1 C 96 % 1035,8 hPa 0,0 l/m 0 min 0 min 0 W/m 8,4 km/h (2 Bft)
01.01.2015 00:20 0,9 C -1,1 C 96 % 1035,7 hPa 0,0 l/m 0 min 0 min 0 W/m 8,4 km/h (2 Bft)
01.01.2015 00:22 0,9 C -1,1 C 96 % 1035,7 hPa 0,0 l/m 0 min 0 min 0 W/m 6,3 km/h (2 Bft)
01.01.2015 00:24 0,9 C -1,1 C 96 % 1035,7 hPa 0,0 l/m 0 min 0 min 0 W/m 6,3 km/h (2 Bft)
01.01.2015 00:26 0,9 C -1,1 C 96 % 1035,8 hPa 0,0 l/m 0 min 0 min 0 W/m 6,3 km/h (2 Bft)
01.01.2015 00:28 0,9 C -1,1 C 96 % 1035,6 hPa 0,0 l/m 0 min 0 min 0 W/m 8,4 km/h (2 Bft)
01.01.2015 00:30 0,9 C -1,1 C 96 % 1035,7 hPa 0,0 l/m 0 min 0 min 0 W/m 8,4 km/h (2 Bft)
01.01.2015 00:32 0,9 C -0,6 C 96 % 1035,6 hPa 0,0 l/m 0 min 0 min 0 W/m 8,4 km/h (2 Bft)
01.01.2015 00:34 0,9 C -0,6 C 96 % 1035,5 hPa 0,0 l/m 0 min 0 min 0 W/m 8,4 km/h (2 Bft)
01.01.2015 00:36 0,9 C -0,6 C 96 % 1035,5 hPa 0,0 l/m 0 min 0 min 0 W/m 8,4 km/h (2 Bft)
01.01.2015 00:38 0,8 C -0,6 C 96 % 1035,5 hPa 0,0 l/m 0 min 0 min 0 W/m 6,3 km/h (2 Bft)
01.01.2015 00:40 0,8 C -0,6 C 96 % 1035,5 hPa 0,0 l/m 0 min 0 min 0 W/m 6,3 km/h (2 Bft)
01.01.2015 00:42 0,8 C -1,1 C 96 % 1035,4 hPa 0,0 l/m 0 min 0 min 0 W/m 6,3 km/h (2 Bft)
01.01.2015 00:44 0,8 C -1,1 C 96 % 1035,4 hPa 0,0 l/m 0 min 0 min 0 W/m 8,4 km/h (2 Bft)
01.01.2015 00:46 0,8 C -0,6 C 96 % 1035,4 hPa 0,0 l/m 0 min 0 min 0 W/m 10,5 km/h (2 Bft)
01.01.2015 00:48 0,8 C -0,6 C 96 % 1035,4 hPa 0,0 l/m 0 min 0 min 0 W/m 8,4 km/h (2 Bft)
01.01.2015 00:50 0,8 C -0,6 C 96 % 1035,4 hPa 0,0 l/m 0 min 0 min 0 W/m 8,4 km/h (2 Bft)
01.01.2015 00:52 0,8 C -0,6 C 96 % 1035,5 hPa 0,0 l/m 0 min 0 min 0 W/m 10,5 km/h (2 Bft)
01.01.2015 00:54 0,8 C -0,6 C 96 % 1035,5 hPa 0,0 l/m 0 min 0 min 0 W/m 10,5 km/h (2 Bft)
01.01.2015 00:56 0,9 C -0,6 C 96 % 1035,6 hPa 0,0 l/m 0 min 0 min 0 W/m 10,5 km/h (2 Bft)
01.01.2015 00:58 0,9 C -0,6 C 96 % 1035,6 hPa 0,0 l/m 0 min 0 min 0 W/m 8,4 km/h (2 Bft)
01.01.2015 01:00 0,9 C -0,6 C 96 % 1035,6 hPa 0,0 l/m 0 min 0 min 0 W/m 8,4 km/h (2 Bft)
01.01.2015 01:02 0,9 C -0,6 C 96 % 1035,6 hPa 0,0 l/m 0 min 0 min 0 W/m 8,4 km/h (2 Bft)
01.01.2015 01:04 0,9 C -0,6 C 96 % 1035,6 hPa 0,0 l/m 0 min 0 min 0 W/m 8,4 km/h (2 Bft)
01.01.2015 01:06 0,9 C -0,6 C 96 % 1035,6 hPa 0,0 l/m 0 min 0 min 0 W/m 6,3 km/h (2 Bft)
01.01.2015 01:08 0,9 C -0,6 C 96 % 1035,5 hPa 0,0 l/m 0 min 0 min 0 W/m 10,5 km/h (2 Bft)
01.01.2015 01:10 0,9 C -0,6 C 96 % 1035,6 hPa 0,0 l/m 0 min 0 min 0 W/m 8,4 km/h (2 Bft)
01.01.2015 01:12 0,9 C -0,6 C 96 % 1035,5 hPa 0,0 l/m 0 min 0 min 0 W/m 8,4 km/h (2 Bft)
01.01.2015 01:14 0,9 C -0,6 C 96 % 1035,5 hPa 0,0 l/m 0 min 0 min 0 W/m 6,3 km/h (2 Bft)
01.01.2015 01:16 0,9 C -0,6 C 96 % 1035,6 hPa 0,0 l/m 0 min 0 min 0 W/m 8,4 km/h (2 Bft)
01.01.2015 01:18 0,9 C -0,6 C 96 % 1035,6 hPa 0,0 l/m 0 min 0 min 0 W/m 10,5 km/h (2 Bft)
01.01.2015 01:20 0,9 C -0,6 C 96 % 1035,6 hPa 0,0 l/m 0 min 0 min 0 W/m 8,4 km/h (2 Bft)
01.01.2015 01:22 0,9 C -0,6 C 96 % 1035,6 hPa 0,0 l/m 0 min 0 min 0 W/m 8,4 km/h (2 Bft)
01.01.2015 01:24 0,8 C -0,6 C 96 % 1035,6 hPa 0,0 l/m 0 min 0 min 0 W/m 8,4 km/h (2 Bft)
01.01.2015 01:26 0,8 C -0,6 C 96 % 1035,6 hPa 0,0 l/m 0 min 0 min 0 W/m 6,3 km/h (2 Bft)
01.01.2015 01:28 0,8 C -0,6 C 96 % 1035,6 hPa 0,0 l/m 0 min 0 min 0 W/m 6,3 km/h (2 Bft)
01.01.2015 01:30 0,8 C -0,6 C 96 % 1035,6 hPa 0,0 l/m 0 min 0 min 0 W/m 8,4 km/h (2 Bft)
01.01.2015 01:32 0,8 C -0,6 C 96 % 1035,6 hPa 0,0 l/m 0 min 0 min 0 W/m 8,4 km/h (2 Bft)
01.01.2015 01:34 0,8 C -1,1 C 96 % 1035,6 hPa 0,0 l/m 0 min 0 min 0 W/m 8,4 km/h (2 Bft)
01.01.2015 01:36 0,8 C -0,6 C 96 % 1035,7 hPa 0,0 l/m 0 min 0 min 0 W/m 8,4 km/h (2 Bft)
01.01.2015 01:38 0,8 C -0,6 C 96 % 1035,6 hPa 0,0 l/m 0 min 0 min 0 W/m 10,5 km/h (2 Bft)
01.01.2015 01:40 0,8 C -0,6 C 96 % 1035,5 hPa 0,0 l/m 0 min 0 min 0 W/m 8,4 km/h (2 Bft)
01.01.2015 01:42 0,8 C -1,1 C 96 % 1035,5 hPa 0,0 l/m 0 min 0 min 0 W/m 6,3 km/h (2 Bft)
01.01.2015 01:44 0,8 C -1,1 C 96 % 1035,4 hPa 0,0 l/m 0 min 0 min 0 W/m 8,4 km/h (2 Bft)
01.01.2015 01:46 0,8 C -1,1 C 96 % 1035,4 hPa 0,0 l/m 0 min 0 min 0 W/m 6,3 km/h (2 Bft)
01.01.2015 01:48 0,8 C -1,1 C 96 % 1035,4 hPa 0,0 l/m 0 min 0 min 0 W/m 8,4 km/h (2 Bft)
01.01.2015 01:50 0,8 C -1,1 C 96 % 1035,5 hPa 0,0 l/m 0 min 0 min 0 W/m 10,5 km/h (2 Bft)
01.01.2015 01:52 0,7 C -1,1 C 96 % 1035,4 hPa 0,0 l/m 0 min 0 min 0 W/m 8,4 km/h (2 Bft)
01.01.2015 01:54 0,7 C -1,1 C 96 % 1035,4 hPa 0,0 l/m 0 min 0 min 0 W/m 6,3 km/h (2 Bft)
01.01.2015 01:56 0,7 C -1,1 C 96 % 1035,5 hPa 0,0 l/m 0 min 0 min 0 W/m 6,3 km/h (2 Bft)
01.01.2015 01:58 0,7 C -1,1 C 96 % 1035,5 hPa 0,0 l/m 0 min 0 min 0 W/m 6,3 km/h (2 Bft)
01.01.2015 02:00 0,7 C -1,1 C 96 % 1035,5 hPa 0,0 l/m 0 min 0 min 0 W/m 8,4 km/h (2 Bft)
01.01.2015 02:02 0,7 C -1,1 C 96 % 1035,5 hPa 0,0 l/m 0 min 0 min 0 W/m 6,3 km/h (2 Bft)
01.01.2015 02:04 0,7 C -1,1 C 96 % 1035,5 hPa 0,0 l/m 0 min 0 min 0 W/m 8,4 km/h (2 Bft)
01.01.2015 02:06 0,7 C -1,1 C 96 % 1035,5 hPa 0,0 l/m 0 min 0 min 0 W/m 8,4 km/h (2 Bft)
01.01.2015 02:08 0,7 C -1,1 C 96 % 1035,5 hPa 0,0 l/m 0 min 0 min 0 W/m 8,4 km/h (2 Bft)
01.01.2015 02:10 0,7 C -1,1 C 96 % 1035,5 hPa 0,0 l/m 0 min 0 min 0 W/m 6,3 km/h (2 Bft)
01.01.2015 02:12 0,7 C -1,1 C 96 % 1035,5 hPa 0,0 l/m 0 min 0 min 0 W/m 6,3 km/h (2 Bft)
01.01.2015 02:14 0,6 C -1,1 C 96 % 1035,5 hPa 0,0 l/m 0 min 0 min 0 W/m 8,4 km/h (2 Bft)
01.01.2015 02:16 0,6 C -1,1 C 96 % 1035,6 hPa 0,0 l/m 0 min 0 min 0 W/m 10,5 km/h (2 Bft)
01.01.2015 02:18 0,6 C -1,7 C 96 % 1035,6 hPa 0,0 l/m 0 min 0 min 0 W/m 4,2 km/h (1 Bft)
01.01.2015 02:20 0,6 C -1,7 C 96 % 1035,6 hPa 0,0 l/m 0 min 0 min 0 W/m 8,4 km/h (2 Bft)
01.01.2015 02:22 0,6 C -1,1 C 96 % 1035,6 hPa 0,0 l/m 0 min 0 min 0 W/m 10,5 km/h (2 Bft)
01.01.2015 02:24 0,6 C -1,1 C 96 % 1035,6 hPa 0,0 l/m 0 min 0 min 0 W/m 6,3 km/h (2 Bft)
01.01.2015 02:26 0,6 C -1,1 C 96 % 1035,6 hPa 0,0 l/m 0 min 0 min 0 W/m 8,4 km/h (2 Bft)
01.01.2015 02:28 0,6 C -1,1 C 96 % 1035,6 hPa 0,0 l/m 0 min 0 min 0 W/m 8,4 km/h (2 Bft)
01.01.2015 02:30 0,6 C -1,1 C 96 % 1035,6 hPa 0,0 l/m 0 min 0 min 0 W/m 8,4 km/h (2 Bft)
01.01.2015 02:32 0,5 C -1,1 C 96 % 1035,5 hPa 0,0 l/m 0 min 0 min 0 W/m 8,4 km/h (2 Bft)
01.01.2015 02:34 0,6 C -1,1 C 96 % 1035,6 hPa 0,0 l/m 0 min 0 min 0 W/m 8,4 km/h (2 Bft)
01.01.2015 02:36 0,5 C -1,1 C 96 % 1035,5 hPa 0,0 l/m 0 min 0 min 0 W/m 12,6 km/h (3 Bft)
01.01.2015 02:38 0,5 C -1,1 C 96 % 1035,4 hPa 0,0 l/m 0 min 0 min 0 W/m 10,5 km/h (2 Bft)
01.01.2015 02:40 0,5 C -1,1 C 96 % 1035,4 hPa 0,0 l/m 0 min 0 min 0 W/m 8,4 km/h (2 Bft)
01.01.2015 02:42 0,5 C -1,1 C 96 % 1035,4 hPa 0,0 l/m 0 min 0 min 0 W/m 12,6 km/h (3 Bft)
01.01.2015 02:44 0,5 C -1,1 C 96 % 1035,4 hPa 0,0 l/m 0 min 0 min 0 W/m 10,5 km/h (2 Bft)
01.01.2015 02:46 0,5 C -1,1 C 96 % 1035,4 hPa 0,0 l/m 0 min 0 min 0 W/m 8,4 km/h (2 Bft)
01.01.2015 02:48 0,5 C -1,1 C 96 % 1035,4 hPa 0,0 l/m 0 min 0 min 0 W/m 8,4 km/h (2 Bft)
01.01.2015 02:50 0,5 C -1,1 C 96 % 1035,4 hPa 0,0 l/m 0 min 0 min 0 W/m 8,4 km/h (2 Bft)
01.01.2015 02:52 0,5 C -1,1 C 96 % 1035,5 hPa 0,0 l/m 0 min 0 min 0 W/m 8,4 km/h (2 Bft)
01.01.2015 02:54 0,5 C -1,1 C 96 % 1035,5 hPa 0,0 l/m 0 min 0 min 0 W/m 8,4 km/h (2 Bft)
01.01.2015 02:56 0,5 C -1,1 C 96 % 1035,5 hPa 0,0 l/m 0 min 0 min 0 W/m 8,4 km/h (2 Bft)
01.01.2015 02:58 0,5 C -1,1 C 96 % 1035,5 hPa 0,0 l/m 0 min 0 min 0 W/m 8,4 km/h (2 Bft)
01.01.2015 03:00 0,5 C -1,1 C 96 % 1035,5 hPa 0,0 l/m 0 min 0 min 0 W/m 12,6 km/h (3 Bft)
01.01.2015 03:02 0,5 C -0,6 C 96 % 1035,5 hPa 0,0 l/m 0 min 0 min 0 W/m 10,5 km/h (2 Bft)
01.01.2015 03:04 0,5 C -0,6 C 97 % 1035,5 hPa 0,0 l/m 0 min 0 min 0 W/m 8,4 km/h (2 Bft)
01.01.2015 03:06 0,5 C -1,1 C 97 % 1035,5 hPa 0,0 l/m 0 min 0 min 0 W/m 8,4 km/h (2 Bft)
01.01.2015 03:08 0,5 C -1,1 C 97 % 1035,5 hPa 0,0 l/m 0 min 0 min 0 W/m 8,4 km/h (2 Bft)
01.01.2015 03:10 0,5 C -1,1 C 97 % 1035,5 hPa 0,0 l/m 0 min 0 min 0 W/m 6,3 km/h (2 Bft)
01.01.2015 03:12 0,5 C -1,1 C 97 % 1035,6 hPa 0,0 l/m 0 min 0 min 0 W/m 10,5 km/h (2 Bft)
01.01.2015 03:14 0,5 C -1,1 C 97 % 1035,6 hPa 0,0 l/m 0 min 0 min 0 W/m 6,3 km/h (2 Bft)
01.01.2015 03:16 0,5 C -1,1 C 97 % 1035,5 hPa 0,0 l/m 0 min 0 min 0 W/m 10,5 km/h (2 Bft)
01.01.2015 03:18 0,5 C -1,1 C 97 % 1035,6 hPa 0,0 l/m 0 min 0 min 0 W/m 10,5 km/h (2 Bft)
01.01.2015 03:20 0,5 C -1,1 C 97 % 1035,5 hPa 0,0 l/m 0 min 0 min 0 W/m 8,4 km/h (2 Bft)
01.01.2015 03:22 0,5 C -0,6 C 97 % 1035,5 hPa 0,0 l/m 0 min 0 min 0 W/m 14,6 km/h (3 Bft)
01.01.2015 03:24 0,5 C -0,6 C 97 % 1035,5 hPa 0,0 l/m 0 min 0 min 0 W/m 6,3 km/h (2 Bft)
01.01.2015 03:26 0,5 C -1,1 C 97 % 1035,5 hPa 0,0 l/m 0 min 0 min 0 W/m 6,3 km/h (2 Bft)
01.01.2015 03:28 0,6 C -0,6 C 97 % 1035,5 hPa 0,0 l/m 0 min 0 min 0 W/m 6,3 km/h (2 Bft)
01.01.2015 03:30 0,6 C -0,6 C 97 % 1035,4 hPa 0,0 l/m 0 min 0 min 0 W/m 10,5 km/h (2 Bft)
01.01.2015 03:32 0,6 C -0,6 C 97 % 1035,5 hPa 0,0 l/m 0 min 0 min 0 W/m 12,6 km/h (3 Bft)
01.01.2015 03:34 0,6 C -0,6 C 97 % 1035,4 hPa 0,0 l/m 0 min 0 min 0 W/m 8,4 km/h (2 Bft)
01.01.2015 03:36 0,6 C -1,1 C 97 % 1035,5 hPa 0,0 l/m 0 min 0 min 0 W/m 10,5 km/h (2 Bft)
01.01.2015 03:38 0,6 C -0,6 C 97 % 1035,6 hPa 0,0 l/m 0 min 0 min 0 W/m 10,5 km/h (2 Bft)
01.01.2015 03:40 0,6 C -0,6 C 97 % 1035,5 hPa 0,0 l/m 0 min 0 min 0 W/m 8,4 km/h (2 Bft)
01.01.2015 03:42 0,6 C -0,6 C 97 % 1035,5 hPa 0,0 l/m 0 min 0 min 0 W/m 10,5 km/h (2 Bft)
01.01.2015 03:44 0,6 C -0,6 C 97 % 1035,5 hPa 0,0 l/m 0 min 0 min 0 W/m 6,3 km/h (2 Bft)
01.01.2015 03:46 0,6 C -0,6 C 97 % 1035,6 hPa 0,0 l/m 0 min 0 min 0 W/m 10,5 km/h (2 Bft)
01.01.2015 03:48 0,6 C -0,6 C 97 % 1035,6 hPa 0,0 l/m 0 min 0 min 0 W/m 8,4 km/h (2 Bft)
01.01.2015 03:50 0,6 C -0,6 C 97 % 1035,6 hPa 0,0 l/m 0 min 0 min 0 W/m 8,4 km/h (2 Bft)
01.01.2015 03:52 0,6 C -1,1 C 97 % 1035,6 hPa 0,0 l/m 0 min 0 min 0 W/m 6,3 km/h (2 Bft)
01.01.2015 03:54 0,6 C -0,6 C 97 % 1035,5 hPa 0,0 l/m 0 min 0 min 0 W/m 8,4 km/h (2 Bft)
01.01.2015 03:56 0,6 C -1,1 C 97 % 1035,5 hPa 0,0 l/m 0 min 0 min 0 W/m 8,4 km/h (2 Bft)
01.01.2015 03:58 0,6 C -1,1 C 97 % 1035,4 hPa 0,0 l/m 0 min 0 min 0 W/m 6,3 km/h (2 Bft)
01.01.2015 04:00 0,6 C -1,1 C 97 % 1035,3 hPa 0,0 l/m 0 min 0 min 0 W/m 8,4 km/h (2 Bft)
01.01.2015 04:02 0,6 C -1,1 C 97 % 1035,4 hPa 0,0 l/m 0 min 0 min 0 W/m 6,3 km/h (2 Bft)
01.01.2015 04:04 0,6 C -1,1 C 97 % 1035,3 hPa 0,0 l/m 0 min 0 min 0 W/m 6,3 km/h (2 Bft)
01.01.2015 04:06 0,5 C -1,1 C 97 % 1035,3 hPa 0,0 l/m 0 min 0 min 0 W/m 8,4 km/h (2 Bft)
01.01.2015 04:08 0,5 C -1,1 C 97 % 1035,3 hPa 0,0 l/m 0 min 0 min 0 W/m 8,4 km/h (2 Bft)
01.01.2015 04:10 0,5 C -1,1 C 97 % 1035,2 hPa 0,0 l/m 0 min 0 min 0 W/m 10,5 km/h (2 Bft)
01.01.2015 04:12 0,5 C -1,1 C 97 % 1035,2 hPa 0,0 l/m 0 min 0 min 0 W/m 8,4 km/h (2 Bft)
01.01.2015 04:14 0,5 C -1,1 C 97 % 1035,1 hPa 0,0 l/m 0 min 0 min 0 W/m 8,4 km/h (2 Bft)
01.01.2015 04:16 0,5 C -1,1 C 97 % 1035,0 hPa 0,0 l/m 0 min 0 min 0 W/m 8,4 km/h (2 Bft)
01.01.2015 04:18 0,5 C -1,1 C 97 % 1034,9 hPa 0,0 l/m 0 min 0 min 0 W/m 14,6 km/h (3 Bft)
01.01.2015 04:20 0,5 C -1,1 C 97 % 1035,0 hPa 0,0 l/m 0 min 0 min 0 W/m 6,3 km/h (2 Bft)
01.01.2015 04:22 0,5 C -1,1 C 97 % 1034,9 hPa 0,0 l/m 0 min 0 min 0 W/m 8,4 km/h (2 Bft)
01.01.2015 04:24 0,5 C -1,1 C 97 % 1034,8 hPa 0,0 l/m 0 min 0 min 0 W/m 12,6 km/h (3 Bft)
01.01.2015 04:26 0,5 C -1,1 C 97 % 1034,8 hPa 0,0 l/m 0 min 0 min 0 W/m 6,3 km/h (2 Bft)
01.01.2015 04:28 0,5 C -0,6 C 97 % 1034,7 hPa 0,0 l/m 0 min 0 min 0 W/m 8,4 km/h (2 Bft)
01.01.2015 04:30 0,5 C -1,1 C 97 % 1034,5 hPa 0,0 l/m 0 min 0 min 0 W/m 6,3 km/h (2 Bft)
01.01.2015 04:32 0,5 C -1,1 C 97 % 1034,5 hPa 0,0 l/m 0 min 0 min 0 W/m 8,4 km/h (2 Bft)
01.01.2015 04:34 0,5 C -1,1 C 97 % 1034,6 hPa 0,0 l/m 0 min 0 min 0 W/m 8,4 km/h (2 Bft)
01.01.2015 04:36 0,5 C -1,1 C 97 % 1034,5 hPa 0,0 l/m 0 min 0 min 0 W/m 6,3 km/h (2 Bft)
01.01.2015 04:38 0,5 C -0,6 C 97 % 1034,5 hPa 0,0 l/m 0 min 0 min 0 W/m 8,4 km/h (2 Bft)
01.01.2015 04:40 0,5 C -0,6 C 97 % 1034,5 hPa 0,0 l/m 0 min 0 min 0 W/m 8,4 km/h (2 Bft)
01.01.2015 04:42 0,5 C -0,6 C 97 % 1034,5 hPa 0,0 l/m 0 min 0 min 0 W/m 10,5 km/h (2 Bft)
01.01.2015 04:44 0,6 C -0,6 C 97 % 1034,5 hPa 0,0 l/m 0 min 0 min 0 W/m 8,4 km/h (2 Bft)
01.01.2015 04:46 0,6 C -0,6 C 97 % 1034,4 hPa 0,0 l/m 0 min 0 min 0 W/m 8,4 km/h (2 Bft)
01.01.2015 04:48 0,6 C -0,6 C 97 % 1034,3 hPa 0,0 l/m 0 min 0 min 0 W/m 8,4 km/h (2 Bft)
01.01.2015 04:50 0,6 C -0,6 C 97 % 1034,4 hPa 0,0 l/m 0 min 0 min 0 W/m 8,4 km/h (2 Bft)
01.01.2015 04:52 0,6 C -0,6 C 97 % 1034,4 hPa 0,0 l/m 0 min 0 min 0 W/m 6,3 km/h (2 Bft)
01.01.2015 04:54 0,6 C -0,6 C 97 % 1034,4 hPa 0,0 l/m 0 min 0 min 0 W/m 8,4 km/h (2 Bft)
01.01.2015 04:56 0,7 C -0,6 C 97 % 1034,5 hPa 0,0 l/m 0 min 0 min 0 W/m 8,4 km/h (2 Bft)
01.01.2015 04:58 0,7 C -0,6 C 97 % 1034,4 hPa 0,0 l/m 0 min 0 min 0 W/m 10,5 km/h (2 Bft)
01.01.2015 05:00 0,7 C -0,6 C 97 % 1034,3 hPa 0,0 l/m 0 min 0 min 0 W/m 10,5 km/h (2 Bft)
01.01.2015 05:02 0,7 C -0,6 C 97 % 1034,4 hPa 0,0 l/m 0 min 0 min 0 W/m 6,3 km/h (2 Bft)
01.01.2015 05:04 0,7 C -0,6 C 97 % 1034,4 hPa 0,0 l/m 0 min 0 min 0 W/m 6,3 km/h (2 Bft)
01.01.2015 05:06 0,7 C -0,6 C 97 % 1034,4 hPa 0,0 l/m 0 min 0 min 0 W/m 6,3 km/h (2 Bft)
01.01.2015 05:08 0,7 C -0,6 C 97 % 1034,4 hPa 0,0 l/m 0 min 0 min 0 W/m 6,3 km/h (2 Bft)
01.01.2015 05:10 0,7 C -0,6 C 97 % 1034,5 hPa 0,0 l/m 0 min 0 min 0 W/m 6,3 km/h (2 Bft)
01.01.2015 05:12 0,7 C -0,6 C 97 % 1034,5 hPa 0,0 l/m 0 min 0 min 0 W/m 8,4 km/h (2 Bft)
01.01.2015 05:14 0,7 C -1,1 C 97 % 1034,8 hPa 0,0 l/m 0 min 0 min 0 W/m 6,3 km/h (2 Bft)
01.01.2015 05:16 0,7 C -1,1 C 97 % 1035,0 hPa 0,0 l/m 0 min 0 min 0 W/m 6,3 km/h (2 Bft)
01.01.2015 05:18 0,7 C -1,1 C 97 % 1035,0 hPa 0,0 l/m 0 min 0 min 0 W/m 6,3 km/h (2 Bft)
01.01.2015 05:20 0,7 C -0,6 C 97 % 1035,1 hPa 0,0 l/m 0 min 0 min 0 W/m 8,4 km/h (2 Bft)
01.01.2015 05:22 0,7 C -0,6 C 97 % 1035,2 hPa 0,0 l/m 0 min 0 min 0 W/m 6,3 km/h (2 Bft)
01.01.2015 05:24 0,7 C -0,6 C 97 % 1035,5 hPa 0,0 l/m 0 min 0 min 0 W/m 8,4 km/h (2 Bft)
01.01.2015 05:26 0,7 C -0,6 C 97 % 1035,6 hPa 0,0 l/m 0 min 0 min 0 W/m 6,3 km/h (2 Bft)
01.01.2015 05:28 0,7 C -0,6 C 97 % 1035,6 hPa 0,0 l/m 0 min 0 min 0 W/m 2,1 km/h (1 Bft)
01.01.2015 05:30 0,7 C -1,1 C 97 % 1035,7 hPa 0,0 l/m 0 min 0 min 0 W/m 2,1 km/h (1 Bft)
01.01.2015 05:32 0,7 C -1,1 C 97 % 1035,9 hPa 0,0 l/m 0 min 0 min 0 W/m 4,2 km/h (1 Bft)
01.01.2015 05:34 0,7 C -1,1 C 97 % 1035,9 hPa 0,0 l/m 0 min 0 min 0 W/m 4,2 km/h (1 Bft)
01.01.2015 05:36 0,7 C -1,1 C 97 % 1035,7 hPa 0,0 l/m 0 min 0 min 0 W/m 4,2 km/h (1 Bft)
01.01.2015 05:38 0,7 C -1,7 C 97 % 1035,7 hPa 0,0 l/m 0 min 0 min 0 W/m 4,2 km/h (1 Bft)
01.01.2015 05:40 0,7 C -1,7 C 97 % 1035,6 hPa 0,0 l/m 0 min 0 min 0 W/m 6,3 km/h (2 Bft)
01.01.2015 05:42 0,7 C -1,7 C 97 % 1035,4 hPa 0,0 l/m 0 min 0 min 0 W/m 6,3 km/h (2 Bft)
01.01.2015 05:44 0,7 C -1,7 C 97 % 1035,4 hPa 0,0 l/m 0 min 0 min 0 W/m 6,3 km/h (2 Bft)
01.01.2015 05:46 0,6 C -1,7 C 97 % 1035,6 hPa 0,0 l/m 0 min 0 min 0 W/m 2,1 km/h (1 Bft)
01.01.2015 05:48 0,6 C -1,7 C 97 % 1035,7 hPa 0,0 l/m 0 min 0 min 0 W/m 2,1 km/h (1 Bft)
01.01.2015 05:50 0,6 C -2,2 C 97 % 1035,6 hPa 0,0 l/m 0 min 0 min 0 W/m 2,1 km/h (1 Bft)
01.01.2015 05:52 0,5 C -2,2 C 97 % 1035,7 hPa 0,0 l/m 0 min 0 min 0 W/m 4,2 km/h (1 Bft)
01.01.2015 05:54 0,5 C -2,2 C 97 % 1035,6 hPa 0,0 l/m 0 min 0 min 0 W/m 4,2 km/h (1 Bft)
01.01.2015 05:56 0,5 C -2,2 C 97 % 1035,8 hPa 0,0 l/m 0 min 0 min 0 W/m 4,2 km/h (1 Bft)
01.01.2015 05:58 0,5 C -2,2 C 97 % 1035,9 hPa 0,0 l/m 0 min 0 min 0 W/m 6,3 km/h (2 Bft)
01.01.2015 06:00 0,5 C -2,2 C 97 % 1035,9 hPa 0,0 l/m 0 min 0 min 0 W/m 6,3 km/h (2 Bft)
01.01.2015 06:02 0,4 C -2,2 C 97 % 1035,9 hPa 0,0 l/m 0 min 0 min 0 W/m 4,2 km/h (1 Bft)
01.01.2015 06:05 0,4 C -2,2 C 97 % 1035,8 hPa 0,0 l/m 0 min 0 min 0 W/m 6,3 km/h (2 Bft)
01.01.2015 06:08 0,3 C -2,2 C 97 % 1035,8 hPa 0,0 l/m 0 min 0 min 0 W/m 8,4 km/h (2 Bft)
01.01.2015 06:10 0,2 C -2,2 C 97 % 1035,9 hPa 0,0 l/m 0 min 0 min 0 W/m 6,3 km/h (2 Bft)
01.01.2015 06:12 0,2 C -2,2 C 97 % 1035,9 hPa 0,0 l/m 0 min 0 min 0 W/m 6,3 km/h (2 Bft)
01.01.2015 06:14 0,2 C -2,2 C 97 % 1035,9 hPa 0,0 l/m 0 min 0 min 0 W/m 6,3 km/h (2 Bft)
01.01.2015 06:16 0,2 C -2,2 C 97 % 1035,9 hPa 0,0 l/m 0 min 0 min 0 W/m 8,4 km/h (2 Bft)
01.01.2015 06:18 0,1 C -2,2 C 97 % 1035,9 hPa 0,0 l/m 0 min 0 min 0 W/m 6,3 km/h (2 Bft)
01.01.2015 06:20 0,1 C -2,2 C 97 % 1036,0 hPa 0,0 l/m 0 min 0 min 0 W/m 4,2 km/h (1 Bft)
01.01.2015 06:22 0,1 C -2,2 C 97 % 1036,2 hPa 0,0 l/m 0 min 0 min 0 W/m 8,4 km/h (2 Bft)
01.01.2015 06:24 0,1 C -2,2 C 97 % 1036,2 hPa 0,0 l/m 0 min 0 min 0 W/m 6,3 km/h (2 Bft)
01.01.2015 06:26 0,0 C -2,2 C 97 % 1036,2 hPa 0,0 l/m 0 min 0 min 0 W/m 6,3 km/h (2 Bft)
01.01.2015 06:28 0,0 C -2,2 C 97 % 1036,1 hPa 0,0 l/m 0 min 0 min 0 W/m 8,4 km/h (2 Bft)
01.01.2015 06:30 -0,1 C -2,2 C 97 % 1036,1 hPa 0,0 l/m 0 min 0 min 0 W/m 6,3 km/h (2 Bft)
01.01.2015 06:32 -0,1 C -2,2 C 97 % 1036,1 hPa 0,0 l/m 0 min 0 min 0 W/m 12,6 km/h (3 Bft)
01.01.2015 06:34 -0,1 C -2,2 C 97 % 1036,2 hPa 0,0 l/m 0 min 0 min 0 W/m 6,3 km/h (2 Bft)
01.01.2015 06:36 -0,1 C -2,2 C 97 % 1036,3 hPa 0,0 l/m 0 min 0 min 0 W/m 2,1 km/h (1 Bft)
01.01.2015 06:38 -0,1 C -2,2 C 97 % 1036,4 hPa 0,0 l/m 0 min 0 min 0 W/m 4,2 km/h (1 Bft)
01.01.2015 06:40 -0,1 C -2,2 C 97 % 1036,3 hPa 0,0 l/m 0 min 0 min 0 W/m 8,4 km/h (2 Bft)
01.01.2015 06:42 -0,2 C -2,2 C 97 % 1036,3 hPa 0,0 l/m 0 min 0 min 0 W/m 6,3 km/h (2 Bft)
01.01.2015 06:44 -0,2 C -2,2 C 97 % 1036,3 hPa 0,0 l/m 0 min 0 min 0 W/m 6,3 km/h (2 Bft)
01.01.2015 06:46 -0,2 C -2,2 C 97 % 1036,3 hPa 0,0 l/m 0 min 0 min 0 W/m 6,3 km/h (2 Bft)
01.01.2015 06:48 -0,2 C -2,2 C 97 % 1036,2 hPa 0,0 l/m 0 min 0 min 0 W/m 6,3 km/h (2 Bft)
01.01.2015 06:50 -0,2 C -2,2 C 97 % 1036,2 hPa 0,0 l/m 0 min 0 min 0 W/m 8,4 km/h (2 Bft)
01.01.2015 06:52 -0,3 C -2,8 C 97 % 1036,4 hPa 0,0 l/m 0 min 0 min 0 W/m 4,2 km/h (1 Bft)
01.01.2015 06:54 -0,3 C -2,8 C 97 % 1036,4 hPa 0,0 l/m 0 min 0 min 0 W/m 4,2 km/h (1 Bft)
01.01.2015 06:56 -0,3 C -2,2 C 97 % 1036,4 hPa 0,0 l/m 0 min 0 min 0 W/m 10,5 km/h (2 Bft)
01.01.2015 06:58 -0,3 C -2,2 C 97 % 1036,4 hPa 0,0 l/m 0 min 0 min 0 W/m 10,5 km/h (2 Bft)
01.01.2015 07:00 -0,3 C -2,2 C 97 % 1036,4 hPa 0,0 l/m 0 min 0 min 0 W/m 6,3 km/h (2 Bft)
01.01.2015 07:02 -0,4 C -2,2 C 97 % 1036,5 hPa 0,0 l/m 0 min 0 min 0 W/m 8,4 km/h (2 Bft)
01.01.2015 07:04 -0,4 C -2,2 C 97 % 1036,4 hPa 0,0 l/m 0 min 0 min 0 W/m 12,6 km/h (3 Bft)
01.01.2015 07:06 -0,4 C -2,2 C 97 % 1036,4 hPa 0,0 l/m 0 min 0 min 0 W/m 6,3 km/h (2 Bft)
01.01.2015 07:08 -0,4 C -2,2 C 97 % 1036,3 hPa 0,0 l/m 0 min 0 min 0 W/m 8,4 km/h (2 Bft)
01.01.2015 07:10 -0,4 C -2,2 C 97 % 1036,4 hPa 0,0 l/m 0 min 0 min 0 W/m 10,5 km/h (2 Bft)
01.01.2015 07:12 -0,4 C -1,7 C 97 % 1036,3 hPa 0,0 l/m 0 min 0 min 0 W/m 10,5 km/h (2 Bft)
01.01.2015 07:14 -0,4 C -1,7 C 97 % 1036,3 hPa 0,0 l/m 0 min 0 min 0 W/m 8,4 km/h (2 Bft)
01.01.2015 07:16 -0,4 C -1,7 C 97 % 1036,3 hPa 0,0 l/m 0 min 0 min 0 W/m 10,5 km/h (2 Bft)
01.01.2015 07:18 -0,4 C -1,7 C 97 % 1036,1 hPa 0,0 l/m 0 min 0 min 0 W/m 10,5 km/h (2 Bft)
01.01.2015 07:20 -0,4 C -1,7 C 97 % 1036,2 hPa 0,0 l/m 0 min 0 min 0 W/m 10,5 km/h (2 Bft)
01.01.2015 07:22 -0,4 C -1,7 C 97 % 1036,1 hPa 0,0 l/m 0 min 0 min 0 W/m 8,4 km/h (2 Bft)
01.01.2015 07:24 -0,4 C -2,2 C 97 % 1036,1 hPa 0,0 l/m 0 min 0 min 0 W/m 10,5 km/h (2 Bft)
01.01.2015 07:26 -0,4 C -2,2 C 97 % 1036,1 hPa 0,0 l/m 0 min 0 min 0 W/m 10,5 km/h (2 Bft)
01.01.2015 07:28 -0,4 C -2,2 C 97 % 1036,1 hPa 0,0 l/m 0 min 0 min 0 W/m 10,5 km/h (2 Bft)
01.01.2015 07:30 -0,4 C -2,2 C 97 % 1036,1 hPa 0,0 l/m 0 min 0 min 0 W/m 10,5 km/h (2 Bft)
01.01.2015 07:32 -0,4 C -1,7 C 97 % 1036,0 hPa 0,0 l/m 0 min 0 min 0 W/m 10,5 km/h (2 Bft)
01.01.2015 07:34 -0,4 C -1,7 C 97 % 1036,0 hPa 0,0 l/m 0 min 0 min 0 W/m 10,5 km/h (2 Bft)
01.01.2015 07:36 -0,4 C -2,2 C 97 % 1036,0 hPa 0,0 l/m 0 min 0 min 0 W/m 10,5 km/h (2 Bft)
01.01.2015 07:38 -0,4 C -1,7 C 97 % 1035,9 hPa 0,0 l/m 0 min 0 min 0 W/m 14,6 km/h (3 Bft)
01.01.2015 07:40 -0,4 C -2,2 C 97 % 1036,0 hPa 0,0 l/m 0 min 0 min 0 W/m 8,4 km/h (2 Bft)
01.01.2015 07:42 -0,4 C -2,2 C 97 % 1035,9 hPa 0,0 l/m 0 min 0 min 0 W/m 8,4 km/h (2 Bft)
01.01.2015 07:44 -0,3 C -2,2 C 97 % 1035,8 hPa 0,0 l/m 0 min 0 min 0 W/m 10,5 km/h (2 Bft)
01.01.2015 07:46 -0,3 C -2,2 C 97 % 1035,7 hPa 0,0 l/m 0 min 0 min 0 W/m 8,4 km/h (2 Bft)
01.01.2015 07:48 -0,3 C -2,2 C 97 % 1035,8 hPa 0,0 l/m 0 min 0 min 0 W/m 6,3 km/h (2 Bft)
01.01.2015 07:50 -0,3 C -2,2 C 97 % 1035,7 hPa 0,0 l/m 0 min 0 min 0 W/m 8,4 km/h (2 Bft)
01.01.2015 07:52 -0,3 C -2,2 C 97 % 1035,7 hPa 0,0 l/m 0 min 0 min 0 W/m 10,5 km/h (2 Bft)
01.01.2015 07:54 -0,4 C -1,7 C 97 % 1035,6 hPa 0,0 l/m 0 min 0 min 0 W/m 10,5 km/h (2 Bft)
01.01.2015 07:56 -0,3 C -2,2 C 97 % 1035,5 hPa 0,0 l/m 0 min 0 min 0 W/m 10,5 km/h (2 Bft)
01.01.2015 07:58 -0,3 C -2,2 C 97 % 1035,4 hPa 0,0 l/m 0 min 0 min 0 W/m 10,5 km/h (2 Bft)
01.01.2015 08:00 -0,3 C -2,2 C 97 % 1035,3 hPa 0,0 l/m 0 min 0 min 0 W/m 12,6 km/h (3 Bft)
01.01.2015 08:02 -0,3 C -2,2 C 97 % 1035,3 hPa 0,0 l/m 0 min 0 min 0 W/m 12,6 km/h (3 Bft)
01.01.2015 08:04 -0,3 C -1,7 C 97 % 1035,2 hPa 0,0 l/m 0 min 0 min 0 W/m 14,6 km/h (3 Bft)
01.01.2015 08:06 -0,3 C -1,7 C 97 % 1035,1 hPa 0,0 l/m 0 min 0 min 0 W/m 14,6 km/h (3 Bft)
01.01.2015 08:08 -0,3 C -1,7 C 97 % 1035,2 hPa 0,0 l/m 0 min 0 min 0 W/m 10,5 km/h (2 Bft)
01.01.2015 08:10 -0,3 C -1,7 C 97 % 1035,0 hPa 0,0 l/m 0 min 0 min 0 W/m 14,6 km/h (3 Bft)
01.01.2015 08:12 -0,3 C -1,7 C 97 % 1035,1 hPa 0,0 l/m 0 min 0 min 0 W/m 10,5 km/h (2 Bft)
01.01.2015 08:14 -0,3 C -1,7 C 97 % 1035,0 hPa 0,0 l/m 0 min 0 min 0 W/m 14,6 km/h (3 Bft)
01.01.2015 08:16 -0,3 C -1,7 C 97 % 1034,9 hPa 0,0 l/m 0 min 0 min 0 W/m 12,6 km/h (3 Bft)
01.01.2015 08:18 -0,3 C -1,7 C 97 % 1034,9 hPa 0,0 l/m 0 min 0 min 0 W/m 14,6 km/h (3 Bft)
01.01.2015 08:20 -0,2 C -1,7 C 97 % 1034,8 hPa 0,0 l/m 0 min 0 min 0 W/m 16,7 km/h (3 Bft)
01.01.2015 08:22 -0,2 C -1,7 C 97 % 1034,8 hPa 0,0 l/m 0 min 0 min 0 W/m 18,8 km/h (3 Bft)
01.01.2015 08:24 -0,2 C -1,7 C 97 % 1034,7 hPa 0,0 l/m 0 min 0 min 0 W/m 14,6 km/h (3 Bft)
01.01.2015 08:26 -0,2 C -1,7 C 97 % 1034,7 hPa 0,0 l/m 0 min 0 min 4 W/m 18,8 km/h (3 Bft)
01.01.2015 08:28 -0,2 C -1,7 C 97 % 1034,7 hPa 0,0 l/m 0 min 0 min 6 W/m 20,9 km/h (4 Bft)
01.01.2015 08:34 -0,1 C -1,7 C 97 % 1034,7 hPa 0,0 l/m 0 min 0 min 9 W/m 10,5 km/h (2 Bft)
01.01.2015 08:36 -0,1 C -1,7 C 97 % 1034,7 hPa 0,0 l/m 0 min 0 min 9 W/m 23,0 km/h (4 Bft)
01.01.2015 08:38 -0,1 C -1,7 C 97 % 1034,7 hPa 0,0 l/m 0 min 0 min 9 W/m 16,7 km/h (3 Bft)
01.01.2015 08:40 -0,1 C -1,7 C 97 % 1034,7 hPa 0,0 l/m 0 min 0 min 9 W/m 16,7 km/h (3 Bft)
01.01.2015 08:42 -0,1 C -1,7 C 97 % 1034,6 hPa 0,0 l/m 0 min 0 min 11 W/m 16,7 km/h (3 Bft)
01.01.2015 08:44 -0,1 C -1,7 C 97 % 1034,6 hPa 0,0 l/m 0 min 0 min 11 W/m 16,7 km/h (3 Bft)
01.01.2015 08:46 0,0 C -1,7 C 97 % 1034,6 hPa 0,0 l/m 0 min 0 min 11 W/m 12,6 km/h (3 Bft)
01.01.2015 08:48 0,0 C -1,7 C 97 % 1034,6 hPa 0,0 l/m 0 min 0 min 13 W/m 20,9 km/h (4 Bft)
01.01.2015 08:50 0,0 C -1,7 C 97 % 1034,5 hPa 0,0 l/m 0 min 0 min 14 W/m 12,6 km/h (3 Bft)
01.01.2015 08:52 0,0 C -1,7 C 97 % 1034,5 hPa 0,0 l/m 0 min 0 min 16 W/m 23,0 km/h (4 Bft)
01.01.2015 08:54 0,0 C -1,7 C 97 % 1034,5 hPa 0,0 l/m 2 min 0 min 18 W/m 12,6 km/h (3 Bft)
01.01.2015 08:56 0,0 C -1,7 C 97 % 1034,6 hPa 0,0 l/m 2 min 0 min 19 W/m 14,6 km/h (3 Bft)
01.01.2015 08:58 0,0 C -1,7 C 97 % 1034,6 hPa 0,0 l/m 2 min 0 min 19 W/m 14,6 km/h (3 Bft)
01.01.2015 09:00 0,0 C -1,7 C 97 % 1034,6 hPa 0,0 l/m 2 min 0 min 21 W/m 12,6 km/h (3 Bft)
01.01.2015 09:02 0,0 C -1,7 C 97 % 1034,5 hPa 0,0 l/m 2 min 0 min 23 W/m 12,6 km/h (3 Bft)
01.01.2015 09:04 0,0 C -1,7 C 97 % 1034,5 hPa 0,0 l/m 2 min 0 min 24 W/m 14,6 km/h (3 Bft)
01.01.2015 09:06 0,0 C -1,7 C 97 % 1034,4 hPa 0,0 l/m 2 min 0 min 25 W/m 18,8 km/h (3 Bft)
01.01.2015 09:08 0,0 C -1,7 C 97 % 1034,4 hPa 0,0 l/m 2 min 0 min 26 W/m 12,6 km/h (3 Bft)
01.01.2015 09:10 0,0 C -1,7 C 97 % 1034,4 hPa 0,0 l/m 2 min 0 min 27 W/m 16,7 km/h (3 Bft)
01.01.2015 09:12 0,0 C -1,7 C 97 % 1034,4 hPa 0,0 l/m 2 min 0 min 30 W/m 14,6 km/h (3 Bft)
01.01.2015 09:14 0,0 C -1,7 C 97 % 1034,4 hPa 0,0 l/m 2 min 0 min 32 W/m 14,6 km/h (3 Bft)
01.01.2015 09:16 0,0 C -1,7 C 97 % 1034,4 hPa 0,0 l/m 2 min 0 min 33 W/m 16,7 km/h (3 Bft)
01.01.2015 09:18 0,0 C -1,7 C 97 % 1034,4 hPa 0,0 l/m 2 min 0 min 36 W/m 16,7 km/h (3 Bft)
01.01.2015 09:20 0,0 C -1,7 C 97 % 1034,4 hPa 0,0 l/m 2 min 0 min 38 W/m 14,6 km/h (3 Bft)
01.01.2015 09:22 0,0 C -1,7 C 97 % 1034,5 hPa 0,0 l/m 2 min 0 min 40 W/m 16,7 km/h (3 Bft)
01.01.2015 09:24 0,0 C -1,1 C 97 % 1034,5 hPa 0,0 l/m 0 min 0 min 38 W/m 12,6 km/h (3 Bft)
01.01.2015 09:26 0,0 C -1,7 C 97 % 1034,6 hPa 0,0 l/m 0 min 0 min 35 W/m 12,6 km/h (3 Bft)
01.01.2015 09:28 0,0 C -1,7 C 97 % 1034,6 hPa 0,0 l/m 0 min 0 min 34 W/m 12,6 km/h (3 Bft)
01.01.2015 09:30 0,0 C -1,7 C 97 % 1034,7 hPa 0,0 l/m 0 min 0 min 40 W/m 8,4 km/h (2 Bft)
01.01.2015 09:32 0,0 C -1,7 C 97 % 1034,8 hPa 0,0 l/m 0 min 0 min 40 W/m 10,5 km/h (2 Bft)
01.01.2015 09:34 0,0 C -1,7 C 97 % 1034,9 hPa 0,0 l/m 0 min 0 min 45 W/m 6,3 km/h (2 Bft)
01.01.2015 09:36 0,0 C -1,7 C 97 % 1035,0 hPa 0,0 l/m 0 min 0 min 44 W/m 4,2 km/h (1 Bft)
01.01.2015 09:38 0,0 C -1,7 C 97 % 1035,0 hPa 0,0 l/m 0 min 0 min 43 W/m 4,2 km/h (1 Bft)
01.01.2015 09:40 0,0 C -1,7 C 97 % 1035,2 hPa 0,0 l/m 0 min 0 min 46 W/m 4,2 km/h (1 Bft)
01.01.2015 09:42 0,0 C -1,7 C 97 % 1035,2 hPa 0,0 l/m 0 min 0 min 46 W/m 2,1 km/h (1 Bft)
01.01.2015 09:44 0,0 C -1,7 C 97 % 1035,3 hPa 0,0 l/m 0 min 0 min 40 W/m 4,2 km/h (1 Bft)
01.01.2015 09:46 0,0 C -1,7 C 97 % 1035,4 hPa 0,0 l/m 0 min 0 min 39 W/m 4,2 km/h (1 Bft)
01.01.2015 09:48 0,0 C -1,7 C 97 % 1035,4 hPa 0,0 l/m 0 min 0 min 48 W/m 6,3 km/h (2 Bft)
01.01.2015 09:50 0,0 C -1,7 C 97 % 1035,6 hPa 0,0 l/m 2 min 0 min 68 W/m 4,2 km/h (1 Bft)
01.01.2015 09:52 0,0 C -1,7 C 97 % 1035,6 hPa 0,0 l/m 2 min 0 min 79 W/m 4,2 km/h (1 Bft)
01.01.2015 09:54 0,0 C -1,7 C 97 % 1035,6 hPa 0,0 l/m 2 min 0 min 82 W/m 4,2 km/h (1 Bft)
01.01.2015 09:56 0,0 C -1,7 C 97 % 1035,6 hPa 0,0 l/m 2 min 0 min 83 W/m 2,1 km/h (1 Bft)
01.01.2015 09:58 0,0 C -1,1 C 97 % 1035,6 hPa 0,0 l/m 2 min 0 min 86 W/m 4,2 km/h (1 Bft)
01.01.2015 10:00 0,1 C -1,1 C 97 % 1035,5 hPa 0,0 l/m 2 min 0 min 99 W/m 4,2 km/h (1 Bft)
01.01.2015 10:02 0,1 C -1,1 C 97 % 1035,4 hPa 0,0 l/m 2 min 0 min 109 W/m 6,3 km/h (2 Bft)
01.01.2015 10:04 0,1 C -1,1 C 97 % 1035,5 hPa 0,0 l/m 2 min 0 min 116 W/m 2,1 km/h (1 Bft)
01.01.2015 10:06 0,1 C -1,1 C 97 % 1035,5 hPa 0,0 l/m 2 min 0 min 123 W/m 6,3 km/h (2 Bft)
01.01.2015 10:08 0,1 C -1,1 C 97 % 1035,5 hPa 0,0 l/m 2 min 0 min 130 W/m 8,4 km/h (2 Bft)
01.01.2015 10:10 0,1 C -1,1 C 97 % 1035,7 hPa 0,0 l/m 2 min 0 min 138 W/m 6,3 km/h (2 Bft)
01.01.2015 10:12 0,1 C -0,6 C 97 % 1035,7 hPa 0,0 l/m 2 min 0 min 145 W/m 4,2 km/h (1 Bft)
01.01.2015 10:14 0,2 C -0,6 C 97 % 1035,9 hPa 0,0 l/m 2 min 0 min 149 W/m 4,2 km/h (1 Bft)
01.01.2015 10:16 0,2 C -0,6 C 97 % 1036,1 hPa 0,0 l/m 2 min 0 min 156 W/m 4,2 km/h (1 Bft)
01.01.2015 10:18 0,2 C -0,6 C 97 % 1036,0 hPa 0,0 l/m 2 min 0 min 161 W/m 4,2 km/h (1 Bft)
01.01.2015 10:20 0,2 C -0,6 C 97 % 1035,8 hPa 0,0 l/m 2 min 0 min 165 W/m 6,3 km/h (2 Bft)
01.01.2015 10:22 0,3 C -0,6 C 97 % 1035,8 hPa 0,0 l/m 2 min 0 min 169 W/m 8,4 km/h (2 Bft)
01.01.2015 10:24 0,4 C 0,0 C 98 % 1035,9 hPa 0,0 l/m 2 min 0 min 172 W/m 6,3 km/h (2 Bft)
01.01.2015 10:26 0,5 C 0,0 C 98 % 1035,7 hPa 0,0 l/m 2 min 0 min 175 W/m 8,4 km/h (2 Bft)
01.01.2015 10:28 0,5 C 0,0 C 97 % 1035,6 hPa 0,0 l/m 2 min 0 min 178 W/m 8,4 km/h (2 Bft)
01.01.2015 10:30 0,5 C 0,0 C 97 % 1035,5 hPa 0,0 l/m 2 min 0 min 179 W/m 8,4 km/h (2 Bft)
01.01.2015 10:32 0,6 C 0,0 C 97 % 1035,6 hPa 0,0 l/m 2 min 0 min 177 W/m 10,5 km/h (2 Bft)
01.01.2015 10:34 0,7 C 0,0 C 97 % 1035,5 hPa 0,0 l/m 2 min 0 min 170 W/m 8,4 km/h (2 Bft)
01.01.2015 10:36 0,7 C 0,0 C 98 % 1035,5 hPa 0,0 l/m 2 min 0 min 135 W/m 6,3 km/h (2 Bft)
01.01.2015 10:38 0,8 C 0,0 C 98 % 1035,5 hPa 0,0 l/m 0 min 0 min 98 W/m 10,5 km/h (2 Bft)
01.01.2015 10:40 0,9 C 0,0 C 98 % 1035,5 hPa 0,0 l/m 0 min 0 min 99 W/m 10,5 km/h (2 Bft)
01.01.2015 10:42 0,9 C 0,0 C 98 % 1035,6 hPa 0,0 l/m 2 min 0 min 129 W/m 10,5 km/h (2 Bft)
01.01.2015 10:44 0,9 C 0,0 C 98 % 1035,6 hPa 0,0 l/m 2 min 0 min 129 W/m 8,4 km/h (2 Bft)
01.01.2015 10:46 1,0 C 0,0 C 98 % 1035,6 hPa 0,0 l/m 2 min 0 min 127 W/m 10,5 km/h (2 Bft)
01.01.2015 10:48 1,1 C 0,0 C 98 % 1035,6 hPa 0,0 l/m 2 min 0 min 127 W/m 10,5 km/h (2 Bft)
01.01.2015 10:50 1,1 C 0,0 C 98 % 1035,6 hPa 0,0 l/m 2 min 0 min 118 W/m 6,3 km/h (2 Bft)
01.01.2015 10:52 1,1 C 0,0 C 98 % 1035,7 hPa 0,0 l/m 2 min 0 min 118 W/m 14,6 km/h (3 Bft)
01.01.2015 10:54 1,2 C 0,0 C 98 % 1035,6 hPa 0,0 l/m 2 min 0 min 110 W/m 8,4 km/h (2 Bft)
01.01.2015 10:56 1,2 C 0,0 C 98 % 1035,6 hPa 0,0 l/m 2 min 0 min 115 W/m 12,6 km/h (3 Bft)
01.01.2015 10:58 1,3 C 0,0 C 98 % 1035,5 hPa 0,0 l/m 2 min 0 min 123 W/m 10,5 km/h (2 Bft)
01.01.2015 11:00 1,3 C 0,0 C 98 % 1035,5 hPa 0,0 l/m 2 min 0 min 114 W/m 8,4 km/h (2 Bft)
01.01.2015 11:02 1,3 C 0,0 C 98 % 1035,5 hPa 0,0 l/m 2 min 0 min 113 W/m 12,6 km/h (3 Bft)
01.01.2015 11:04 1,4 C 0,0 C 98 % 1035,5 hPa 0,0 l/m 0 min 0 min 113 W/m 8,4 km/h (2 Bft)
01.01.2015 11:06 1,4 C 0,0 C 98 % 1035,4 hPa 0,0 l/m 2 min 0 min 116 W/m 12,6 km/h (3 Bft)
01.01.2015 11:08 1,5 C 0,0 C 98 % 1035,4 hPa 0,0 l/m 2 min 0 min 123 W/m 8,4 km/h (2 Bft)
01.01.2015 11:10 1,5 C 0,0 C 98 % 1035,3 hPa 0,2 l/m 2 min 0 min 128 W/m 12,6 km/h (3 Bft)
01.01.2015 11:12 1,6 C 0,6 C 98 % 1035,2 hPa 0,0 l/m 2 min 0 min 127 W/m 8,4 km/h (2 Bft)
01.01.2015 11:14 1,6 C 0,6 C 98 % 1035,2 hPa 0,0 l/m 2 min 0 min 133 W/m 10,5 km/h (2 Bft)
01.01.2015 11:16 1,7 C 0,6 C 98 % 1035,2 hPa 0,0 l/m 2 min 0 min 151 W/m 8,4 km/h (2 Bft)
01.01.2015 11:18 1,7 C 0,6 C 98 % 1035,1 hPa 0,0 l/m 2 min 0 min 171 W/m 14,6 km/h (3 Bft)
01.01.2015 11:20 1,8 C 0,6 C 98 % 1035,2 hPa 0,0 l/m 2 min 0 min 170 W/m 14,6 km/h (3 Bft)
01.01.2015 11:22 1,8 C 0,6 C 98 % 1035,2 hPa 0,0 l/m 2 min 0 min 169 W/m 10,5 km/h (2 Bft)
01.01.2015 11:24 1,9 C 0,6 C 98 % 1035,2 hPa 0,0 l/m 2 min 0 min 181 W/m 18,8 km/h (3 Bft)
01.01.2015 11:26 2,0 C 1,1 C 98 % 1035,1 hPa 0,0 l/m 2 min 0 min 190 W/m 18,8 km/h (3 Bft)
01.01.2015 11:28 2,1 C 1,1 C 98 % 1035,0 hPa 0,0 l/m 2 min 0 min 189 W/m 14,6 km/h (3 Bft)
01.01.2015 11:30 2,1 C 1,1 C 98 % 1035,0 hPa 0,0 l/m 2 min 0 min 192 W/m 23,0 km/h (4 Bft)
01.01.2015 11:32 2,2 C 1,1 C 98 % 1035,0 hPa 0,0 l/m 2 min 0 min 191 W/m 16,7 km/h (3 Bft)
01.01.2015 11:34 2,2 C 1,1 C 98 % 1035,0 hPa 0,0 l/m 2 min 0 min 161 W/m 16,7 km/h (3 Bft)
01.01.2015 11:36 2,3 C 1,1 C 98 % 1035,0 hPa 0,0 l/m 2 min 0 min 166 W/m 16,7 km/h (3 Bft)
01.01.2015 11:38 2,3 C 1,7 C 98 % 1035,1 hPa 0,0 l/m 2 min 0 min 187 W/m 16,7 km/h (3 Bft)
01.01.2015 11:40 2,4 C 1,7 C 98 % 1035,1 hPa 0,0 l/m 2 min 0 min 197 W/m 14,6 km/h (3 Bft)
01.01.2015 11:42 2,4 C 1,7 C 98 % 1035,0 hPa 0,0 l/m 2 min 0 min 204 W/m 18,8 km/h (3 Bft)
01.01.2015 11:44 2,5 C 1,7 C 98 % 1035,0 hPa 0,0 l/m 2 min 0 min 216 W/m 16,7 km/h (3 Bft)
01.01.2015 11:46 2,6 C 1,7 C 98 % 1034,9 hPa 0,0 l/m 2 min 0 min 223 W/m 20,9 km/h (4 Bft)
01.01.2015 11:48 2,6 C 1,7 C 98 % 1034,9 hPa 0,0 l/m 2 min 0 min 227 W/m 16,7 km/h (3 Bft)
01.01.2015 11:50 2,7 C 1,7 C 98 % 1034,9 hPa 0,0 l/m 2 min 0 min 231 W/m 12,6 km/h (3 Bft)
01.01.2015 11:52 2,8 C 1,7 C 98 % 1034,8 hPa 0,0 l/m 2 min 0 min 235 W/m 23,0 km/h (4 Bft)
01.01.2015 11:54 2,8 C 2,2 C 98 % 1034,8 hPa 0,0 l/m 2 min 0 min 241 W/m 16,7 km/h (3 Bft)
01.01.2015 11:56 2,9 C 2,2 C 98 % 1034,8 hPa 0,0 l/m 2 min 0 min 247 W/m 14,6 km/h (3 Bft)
01.01.2015 11:58 3,0 C 2,2 C 98 % 1034,7 hPa 0,0 l/m 2 min 0 min 254 W/m 12,6 km/h (3 Bft)
01.01.2015 12:00 3,1 C 2,2 C 98 % 1034,7 hPa 0,0 l/m 2 min 0 min 261 W/m 23,0 km/h (4 Bft)
01.01.2015 12:02 3,2 C 2,2 C 98 % 1034,6 hPa 0,0 l/m 2 min 0 min 271 W/m 18,8 km/h (3 Bft)
01.01.2015 12:06 3,3 C 2,8 C 98 % 1034,5 hPa 0,0 l/m 2 min 0 min 273 W/m 16,7 km/h (3 Bft)
01.01.2015 12:08 3,4 C 2,8 C 97 % 1034,5 hPa 0,0 l/m 2 min 0 min 258 W/m 14,6 km/h (3 Bft)
01.01.2015 12:10 3,5 C 2,8 C 97 % 1034,5 hPa 0,0 l/m 2 min 0 min 265 W/m 20,9 km/h (4 Bft)
01.01.2015 12:12 3,6 C 2,8 C 97 % 1034,5 hPa 0,0 l/m 2 min 0 min 257 W/m 14,6 km/h (3 Bft)
01.01.2015 12:14 3,7 C 2,8 C 97 % 1034,5 hPa 0,0 l/m 2 min 0 min 251 W/m 23,0 km/h (4 Bft)
01.01.2015 12:16 3,8 C 2,8 C 97 % 1034,5 hPa 0,0 l/m 2 min 0 min 244 W/m 23,0 km/h (4 Bft)
01.01.2015 12:18 3,9 C 2,8 C 96 % 1034,4 hPa 0,0 l/m 2 min 0 min 258 W/m 23,0 km/h (4 Bft)
01.01.2015 12:20 3,9 C 2,8 C 95 % 1034,3 hPa 0,0 l/m 2 min 0 min 239 W/m 23,0 km/h (4 Bft)
01.01.2015 12:22 4,0 C 2,8 C 95 % 1034,3 hPa 0,0 l/m 2 min 0 min 219 W/m 16,7 km/h (3 Bft)
01.01.2015 12:24 4,1 C 2,8 C 94 % 1034,1 hPa 0,0 l/m 2 min 0 min 192 W/m 27,2 km/h (4 Bft)
01.01.2015 12:26 4,1 C 2,8 C 92 % 1034,0 hPa 0,0 l/m 2 min 0 min 140 W/m 25,1 km/h (4 Bft)
01.01.2015 12:28 4,2 C 2,8 C 91 % 1034,0 hPa 0,0 l/m 0 min 0 min 102 W/m 23,0 km/h (4 Bft)
01.01.2015 12:30 4,2 C 2,8 C 90 % 1034,0 hPa 0,0 l/m 0 min 0 min 102 W/m 14,6 km/h (3 Bft)
01.01.2015 12:32 4,2 C 2,8 C 89 % 1033,9 hPa 0,0 l/m 0 min 0 min 110 W/m 25,1 km/h (4 Bft)
01.01.2015 12:34 4,2 C 2,8 C 88 % 1033,9 hPa 0,0 l/m 2 min 0 min 144 W/m 23,0 km/h (4 Bft)
01.01.2015 12:36 4,2 C 2,8 C 87 % 1033,9 hPa 0,0 l/m 2 min 0 min 143 W/m 25,1 km/h (4 Bft)
01.01.2015 12:38 4,2 C 2,8 C 86 % 1033,9 hPa 0,0 l/m 2 min 0 min 177 W/m 29,3 km/h (5 Bft)
01.01.2015 12:40 4,3 C 2,8 C 85 % 1033,9 hPa 0,0 l/m 2 min 0 min 234 W/m 27,2 km/h (4 Bft)
01.01.2015 12:42 4,3 C 2,8 C 85 % 1033,9 hPa 0,0 l/m 2 min 0 min 220 W/m 12,6 km/h (3 Bft)
01.01.2015 12:44 4,3 C 2,8 C 85 % 1033,8 hPa 0,0 l/m 2 min 0 min 214 W/m 10,5 km/h (2 Bft)
01.01.2015 12:46 4,4 C 2,8 C 84 % 1033,8 hPa 0,0 l/m 2 min 0 min 218 W/m 16,7 km/h (3 Bft)
01.01.2015 12:48 4,4 C 3,3 C 84 % 1033,9 hPa 0,0 l/m 2 min 0 min 236 W/m 12,6 km/h (3 Bft)
01.01.2015 12:50 4,5 C 3,3 C 83 % 1034,0 hPa 0,0 l/m 2 min 0 min 253 W/m 16,7 km/h (3 Bft)
01.01.2015 12:52 4,6 C 3,3 C 83 % 1034,1 hPa 0,0 l/m 2 min 0 min 251 W/m 23,0 km/h (4 Bft)
01.01.2015 12:54 4,7 C 3,3 C 82 % 1034,0 hPa 0,0 l/m 2 min 0 min 249 W/m 18,8 km/h (3 Bft)
01.01.2015 12:56 4,7 C 3,3 C 82 % 1034,0 hPa 0,0 l/m 2 min 0 min 240 W/m 23,0 km/h (4 Bft)
01.01.2015 12:58 4,8 C 3,3 C 81 % 1033,9 hPa 0,0 l/m 2 min 0 min 235 W/m 23,0 km/h (4 Bft)
01.01.2015 13:00 4,9 C 3,3 C 81 % 1033,9 hPa 0,0 l/m 2 min 0 min 246 W/m 16,7 km/h (3 Bft)
01.01.2015 13:02 4,9 C 3,3 C 81 % 1033,9 hPa 0,0 l/m 2 min 0 min 243 W/m 23,0 km/h (4 Bft)
01.01.2015 13:04 5,0 C 3,3 C 81 % 1033,8 hPa 0,0 l/m 2 min 0 min 235 W/m 14,6 km/h (3 Bft)
01.01.2015 13:06 5,1 C 3,3 C 80 % 1033,8 hPa 0,0 l/m 2 min 0 min 226 W/m 23,0 km/h (4 Bft)
01.01.2015 13:08 5,2 C 3,3 C 79 % 1033,8 hPa 0,0 l/m 2 min 0 min 233 W/m 25,1 km/h (4 Bft)
01.01.2015 13:10 5,2 C 3,3 C 79 % 1033,7 hPa 0,0 l/m 2 min 0 min 232 W/m 18,8 km/h (3 Bft)
01.01.2015 13:12 5,2 C 3,3 C 78 % 1033,8 hPa 0,0 l/m 2 min 0 min 232 W/m 18,8 km/h (3 Bft)
01.01.2015 13:14 5,3 C 3,3 C 78 % 1033,8 hPa 0,0 l/m 2 min 0 min 229 W/m 20,9 km/h (4 Bft)
01.01.2015 13:16 5,3 C 3,9 C 78 % 1033,7 hPa 0,0 l/m 2 min 0 min 226 W/m 18,8 km/h (3 Bft)
01.01.2015 13:18 5,4 C 3,9 C 78 % 1033,7 hPa 0,0 l/m 2 min 0 min 223 W/m 14,6 km/h (3 Bft)
01.01.2015 13:20 5,4 C 3,9 C 78 % 1033,7 hPa 0,0 l/m 2 min 0 min 217 W/m 20,9 km/h (4 Bft)
01.01.2015 13:22 5,4 C 3,9 C 78 % 1033,7 hPa 0,0 l/m 2 min 0 min 220 W/m 23,0 km/h (4 Bft)
01.01.2015 13:24 5,5 C 3,9 C 78 % 1033,8 hPa 0,0 l/m 2 min 0 min 222 W/m 18,8 km/h (3 Bft)
01.01.2015 13:26 5,6 C 3,9 C 77 % 1033,8 hPa 0,0 l/m 2 min 0 min 221 W/m 20,9 km/h (4 Bft)
01.01.2015 13:28 5,6 C 3,9 C 77 % 1033,8 hPa 0,0 l/m 2 min 0 min 221 W/m 10,5 km/h (2 Bft)
01.01.2015 13:30 5,7 C 3,9 C 77 % 1033,8 hPa 0,0 l/m 2 min 0 min 224 W/m 16,7 km/h (3 Bft)
01.01.2015 13:32 5,7 C 3,9 C 77 % 1033,7 hPa 0,0 l/m 2 min 0 min 227 W/m 18,8 km/h (3 Bft)
01.01.2015 13:34 5,7 C 3,9 C 77 % 1033,7 hPa 0,0 l/m 2 min 0 min 232 W/m 23,0 km/h (4 Bft)
01.01.2015 13:36 5,8 C 3,9 C 77 % 1033,7 hPa 0,0 l/m 2 min 0 min 231 W/m 20,9 km/h (4 Bft)
01.01.2015 13:38 5,8 C 3,9 C 77 % 1033,7 hPa 0,0 l/m 2 min 0 min 222 W/m 20,9 km/h (4 Bft)
01.01.2015 13:40 5,8 C 3,9 C 76 % 1033,7 hPa 0,0 l/m 2 min 0 min 212 W/m 29,3 km/h (5 Bft)
01.01.2015 13:42 5,8 C 3,9 C 76 % 1033,6 hPa 0,0 l/m 2 min 0 min 201 W/m 27,2 km/h (4 Bft)
01.01.2015 13:44 5,8 C 3,9 C 76 % 1033,6 hPa 0,0 l/m 2 min 0 min 191 W/m 20,9 km/h (4 Bft)
01.01.2015 13:46 5,8 C 3,9 C 76 % 1033,5 hPa 0,0 l/m 2 min 0 min 198 W/m 18,8 km/h (3 Bft)
01.01.2015 13:48 5,9 C 3,9 C 76 % 1033,5 hPa 0,0 l/m 2 min 0 min 205 W/m 20,9 km/h (4 Bft)
01.01.2015 13:50 5,9 C 3,9 C 76 % 1033,5 hPa 0,0 l/m 2 min 0 min 192 W/m 25,1 km/h (4 Bft)
01.01.2015 13:52 5,9 C 3,9 C 76 % 1033,4 hPa 0,0 l/m 2 min 0 min 202 W/m 23,0 km/h (4 Bft)
01.01.2015 13:54 5,9 C 3,9 C 75 % 1033,4 hPa 0,0 l/m 2 min 0 min 200 W/m 25,1 km/h (4 Bft)
01.01.2015 13:56 5,9 C 3,9 C 75 % 1033,4 hPa 0,0 l/m 2 min 0 min 191 W/m 18,8 km/h (3 Bft)
01.01.2015 13:58 5,9 C 4,4 C 75 % 1033,4 hPa 0,0 l/m 2 min 0 min 187 W/m 25,1 km/h (4 Bft)
01.01.2015 14:00 5,9 C 4,4 C 75 % 1033,4 hPa 0,0 l/m 2 min 0 min 177 W/m 25,1 km/h (4 Bft)
01.01.2015 14:02 5,9 C 3,9 C 75 % 1033,4 hPa 0,0 l/m 2 min 0 min 183 W/m 25,1 km/h (4 Bft)
01.01.2015 14:06 5,9 C 3,9 C 75 % 1033,3 hPa 0,0 l/m 2 min 0 min 158 W/m 35,6 km/h (5 Bft)
01.01.2015 14:08 5,9 C 3,9 C 75 % 1033,3 hPa 0,0 l/m 2 min 0 min 136 W/m 27,2 km/h (4 Bft)
01.01.2015 14:10 5,9 C 3,9 C 75 % 1033,3 hPa 0,0 l/m 2 min 0 min 153 W/m 20,9 km/h (4 Bft)
01.01.2015 14:12 5,9 C 3,9 C 75 % 1033,2 hPa 0,0 l/m 2 min 0 min 138 W/m 27,2 km/h (4 Bft)
01.01.2015 14:14 5,9 C 3,9 C 74 % 1033,1 hPa 0,0 l/m 2 min 0 min 134 W/m 33,5 km/h (5 Bft)
01.01.2015 14:16 5,8 C 3,9 C 74 % 1033,1 hPa 0,0 l/m 2 min 0 min 144 W/m 31,4 km/h (5 Bft)
01.01.2015 14:18 5,8 C 3,9 C 74 % 1033,1 hPa 0,0 l/m 2 min 0 min 146 W/m 29,3 km/h (5 Bft)
01.01.2015 14:20 5,8 C 3,9 C 74 % 1033,0 hPa 0,0 l/m 2 min 0 min 159 W/m 31,4 km/h (5 Bft)
01.01.2015 14:22 5,8 C 3,9 C 74 % 1033,1 hPa 0,0 l/m 2 min 0 min 160 W/m 35,6 km/h (5 Bft)
01.01.2015 14:24 5,8 C 3,9 C 74 % 1033,1 hPa 0,0 l/m 2 min 0 min 157 W/m 25,1 km/h (4 Bft)
01.01.2015 14:26 5,8 C 3,9 C 74 % 1033,2 hPa 0,0 l/m 2 min 0 min 158 W/m 20,9 km/h (4 Bft)
01.01.2015 14:28 5,8 C 3,9 C 74 % 1033,2 hPa 0,0 l/m 2 min 0 min 157 W/m 25,1 km/h (4 Bft)
01.01.2015 14:30 5,8 C 3,9 C 74 % 1033,2 hPa 0,0 l/m 2 min 0 min 150 W/m 18,8 km/h (3 Bft)
01.01.2015 14:32 5,7 C 3,9 C 74 % 1033,2 hPa 0,0 l/m 2 min 0 min 146 W/m 23,0 km/h (4 Bft)
01.01.2015 14:34 5,7 C 3,9 C 75 % 1033,2 hPa 0,0 l/m 2 min 0 min 138 W/m 23,0 km/h (4 Bft)
01.01.2015 14:36 5,7 C 3,9 C 75 % 1033,2 hPa 0,0 l/m 2 min 0 min 140 W/m 29,3 km/h (5 Bft)
01.01.2015 14:38 5,7 C 3,9 C 75 % 1033,1 hPa 0,0 l/m 2 min 0 min 138 W/m 23,0 km/h (4 Bft)
01.01.2015 14:40 5,7 C 3,9 C 75 % 1033,0 hPa 0,0 l/m 2 min 0 min 116 W/m 23,0 km/h (4 Bft)
01.01.2015 14:42 5,6 C 3,9 C 75 % 1032,9 hPa 0,0 l/m 2 min 0 min 108 W/m 29,3 km/h (5 Bft)
01.01.2015 14:44 5,6 C 3,9 C 75 % 1032,9 hPa 0,0 l/m 2 min 0 min 113 W/m 29,3 km/h (5 Bft)
01.01.2015 14:46 5,6 C 3,9 C 75 % 1032,8 hPa 0,0 l/m 2 min 0 min 119 W/m 20,9 km/h (4 Bft)
01.01.2015 14:48 5,6 C 3,9 C 75 % 1032,8 hPa 0,0 l/m 2 min 0 min 122 W/m 20,9 km/h (4 Bft)
01.01.2015 14:50 5,5 C 3,9 C 75 % 1032,6 hPa 0,0 l/m 2 min 0 min 125 W/m 23,0 km/h (4 Bft)
01.01.2015 14:52 5,5 C 3,9 C 75 % 1032,6 hPa 0,0 l/m 2 min 0 min 129 W/m 27,2 km/h (4 Bft)
01.01.2015 14:54 5,4 C 3,9 C 75 % 1032,6 hPa 0,0 l/m 2 min 0 min 126 W/m 18,8 km/h (3 Bft)
01.01.2015 14:56 5,4 C 3,9 C 75 % 1032,6 hPa 0,0 l/m 2 min 0 min 116 W/m 18,8 km/h (3 Bft)
01.01.2015 14:58 5,4 C 3,9 C 76 % 1032,6 hPa 0,0 l/m 2 min 0 min 106 W/m 18,8 km/h (3 Bft)
01.01.2015 15:00 5,4 C 3,9 C 76 % 1032,7 hPa 0,0 l/m 2 min 0 min 110 W/m 16,7 km/h (3 Bft)
01.01.2015 15:02 5,4 C 3,9 C 76 % 1032,7 hPa 0,0 l/m 2 min 0 min 99 W/m 14,6 km/h (3 Bft)
01.01.2015 15:04 5,4 C 3,9 C 76 % 1032,7 hPa 0,0 l/m 2 min 0 min 90 W/m 14,6 km/h (3 Bft)
01.01.2015 15:06 5,4 C 3,9 C 76 % 1032,6 hPa 0,0 l/m 2 min 0 min 85 W/m 16,7 km/h (3 Bft)
01.01.2015 15:08 5,4 C 3,9 C 76 % 1032,5 hPa 0,0 l/m 2 min 0 min 83 W/m 20,9 km/h (4 Bft)
01.01.2015 15:10 5,4 C 3,9 C 76 % 1032,4 hPa 0,0 l/m 2 min 0 min 82 W/m 23,0 km/h (4 Bft)
01.01.2015 15:12 5,4 C 3,9 C 76 % 1032,5 hPa 0,0 l/m 0 min 0 min 73 W/m 16,7 km/h (3 Bft)
01.01.2015 15:14 5,4 C 3,9 C 76 % 1032,5 hPa 0,0 l/m 0 min 0 min 68 W/m 14,6 km/h (3 Bft)
01.01.2015 15:16 5,3 C 3,9 C 76 % 1032,5 hPa 0,0 l/m 0 min 0 min 65 W/m 18,8 km/h (3 Bft)
01.01.2015 15:18 5,3 C 3,9 C 76 % 1032,5 hPa 0,0 l/m 0 min 0 min 62 W/m 25,1 km/h (4 Bft)
01.01.2015 15:20 5,3 C 3,3 C 76 % 1032,5 hPa 0,0 l/m 0 min 0 min 61 W/m 14,6 km/h (3 Bft)
01.01.2015 15:22 5,3 C 3,9 C 76 % 1032,5 hPa 0,0 l/m 0 min 0 min 60 W/m 14,6 km/h (3 Bft)
01.01.2015 15:24 5,3 C 3,9 C 76 % 1032,4 hPa 0,0 l/m 0 min 0 min 60 W/m 25,1 km/h (4 Bft)
01.01.2015 15:26 5,3 C 3,9 C 76 % 1032,3 hPa 0,0 l/m 0 min 0 min 60 W/m 14,6 km/h (3 Bft)
01.01.2015 15:28 5,3 C 3,9 C 77 % 1032,3 hPa 0,0 l/m 0 min 0 min 60 W/m 12,6 km/h (3 Bft)
01.01.2015 15:30 5,2 C 3,9 C 77 % 1032,4 hPa 0,0 l/m 0 min 0 min 59 W/m 23,0 km/h (4 Bft)
01.01.2015 15:32 5,2 C 3,9 C 77 % 1032,4 hPa 0,0 l/m 2 min 0 min 58 W/m 31,4 km/h (5 Bft)
01.01.2015 15:34 5,2 C 3,9 C 77 % 1032,5 hPa 0,0 l/m 2 min 0 min 58 W/m 18,8 km/h (3 Bft)
01.01.2015 15:36 5,2 C 3,9 C 77 % 1032,6 hPa 0,0 l/m 2 min 0 min 58 W/m 23,0 km/h (4 Bft)
01.01.2015 15:38 5,2 C 3,9 C 77 % 1032,5 hPa 0,0 l/m 2 min 0 min 56 W/m 20,9 km/h (4 Bft)
01.01.2015 15:40 5,2 C 3,9 C 77 % 1032,6 hPa 0,0 l/m 2 min 0 min 55 W/m 20,9 km/h (4 Bft)
01.01.2015 15:42 5,2 C 3,3 C 77 % 1032,6 hPa 0,0 l/m 2 min 0 min 53 W/m 14,6 km/h (3 Bft)
01.01.2015 15:44 5,2 C 3,3 C 77 % 1032,6 hPa 0,0 l/m 2 min 0 min 51 W/m 18,8 km/h (3 Bft)
01.01.2015 15:46 5,1 C 3,3 C 77 % 1032,7 hPa 0,0 l/m 2 min 0 min 48 W/m 25,1 km/h (4 Bft)
01.01.2015 15:48 5,1 C 3,3 C 77 % 1032,7 hPa 0,0 l/m 2 min 0 min 46 W/m 18,8 km/h (3 Bft)
01.01.2015 15:50 5,1 C 3,3 C 77 % 1032,7 hPa 0,0 l/m 2 min 0 min 42 W/m 16,7 km/h (3 Bft)
01.01.2015 15:52 5,1 C 3,3 C 77 % 1032,6 hPa 0,0 l/m 2 min 0 min 39 W/m 18,8 km/h (3 Bft)
01.01.2015 15:54 5,1 C 3,3 C 77 % 1032,6 hPa 0,0 l/m 0 min 0 min 36 W/m 20,9 km/h (4 Bft)
01.01.2015 15:56 5,0 C 3,3 C 77 % 1032,6 hPa 0,0 l/m 0 min 0 min 33 W/m 16,7 km/h (3 Bft)
01.01.2015 15:58 5,0 C 3,3 C 77 % 1032,7 hPa 0,0 l/m 0 min 0 min 31 W/m 20,9 km/h (4 Bft)
01.01.2015 16:00 4,9 C 3,3 C 77 % 1032,6 hPa 0,0 l/m 0 min 0 min 29 W/m 23,0 km/h (4 Bft)
01.01.2015 16:02 4,9 C 2,8 C 78 % 1032,6 hPa 0,0 l/m 0 min 0 min 26 W/m 16,7 km/h (3 Bft)
01.01.2015 16:04 4,9 C 2,8 C 78 % 1032,6 hPa 0,0 l/m 0 min 0 min 25 W/m 16,7 km/h (3 Bft)
01.01.2015 16:06 4,9 C 2,8 C 78 % 1032,4 hPa 0,0 l/m 0 min 0 min 24 W/m 20,9 km/h (4 Bft)
01.01.2015 16:08 4,8 C 2,8 C 78 % 1032,5 hPa 0,0 l/m 0 min 0 min 22 W/m 25,1 km/h (4 Bft)
01.01.2015 16:10 4,8 C 2,8 C 78 % 1032,6 hPa 0,0 l/m 0 min 0 min 21 W/m 12,6 km/h (3 Bft)
01.01.2015 16:12 4,8 C 2,8 C 78 % 1032,4 hPa 0,0 l/m 2 min 0 min 20 W/m 16,7 km/h (3 Bft)
01.01.2015 16:14 4,7 C 2,8 C 78 % 1032,3 hPa 0,0 l/m 2 min 0 min 19 W/m 25,1 km/h (4 Bft)
01.01.2015 16:16 4,7 C 2,8 C 78 % 1032,3 hPa 0,0 l/m 2 min 0 min 19 W/m 23,0 km/h (4 Bft)
01.01.2015 16:18 4,7 C 2,2 C 78 % 1032,2 hPa 0,0 l/m 2 min 0 min 19 W/m 18,8 km/h (3 Bft)
01.01.2015 16:20 4,7 C 2,2 C 79 % 1032,2 hPa 0,0 l/m 2 min 0 min 18 W/m 25,1 km/h (4 Bft)
01.01.2015 16:22 4,6 C 2,8 C 79 % 1032,4 hPa 0,0 l/m 2 min 0 min 16 W/m 18,8 km/h (3 Bft)
01.01.2015 16:24 4,6 C 2,8 C 79 % 1032,3 hPa 0,0 l/m 0 min 0 min 15 W/m 14,6 km/h (3 Bft)
01.01.2015 16:26 4,6 C 2,8 C 79 % 1032,3 hPa 0,0 l/m 0 min 0 min 12 W/m 16,7 km/h (3 Bft)
01.01.2015 16:28 4,5 C 2,2 C 79 % 1032,3 hPa 0,0 l/m 0 min 0 min 11 W/m 14,6 km/h (3 Bft)
01.01.2015 16:30 4,5 C 2,2 C 79 % 1032,3 hPa 0,0 l/m 0 min 0 min 10 W/m 14,6 km/h (3 Bft)
01.01.2015 16:32 4,4 C 2,2 C 79 % 1032,2 hPa 0,0 l/m 0 min 0 min 7 W/m 16,7 km/h (3 Bft)
01.01.2015 16:34 4,4 C 2,2 C 79 % 1032,2 hPa 0,0 l/m 0 min 0 min 7 W/m 12,6 km/h (3 Bft)
01.01.2015 16:36 4,4 C 2,2 C 80 % 1032,3 hPa 0,0 l/m 0 min 0 min 5 W/m 14,6 km/h (3 Bft)
01.01.2015 16:38 4,4 C 2,2 C 79 % 1032,2 hPa 0,0 l/m 0 min 0 min 5 W/m 18,8 km/h (3 Bft)
01.01.2015 16:40 4,3 C 2,2 C 80 % 1032,1 hPa 0,0 l/m 0 min 0 min 0 W/m 14,6 km/h (3 Bft)
01.01.2015 16:42 4,3 C 2,2 C 80 % 1031,9 hPa 0,0 l/m 0 min 0 min 0 W/m 20,9 km/h (4 Bft)
01.01.2015 16:44 4,3 C 1,7 C 80 % 1031,9 hPa 0,0 l/m 0 min 0 min 0 W/m 23,0 km/h (4 Bft)
01.01.2015 16:46 4,3 C 2,2 C 80 % 1031,9 hPa 0,0 l/m 0 min 0 min 0 W/m 14,6 km/h (3 Bft)
01.01.2015 16:48 4,2 C 2,2 C 80 % 1031,8 hPa 0,0 l/m 0 min 0 min 0 W/m 16,7 km/h (3 Bft)
01.01.2015 16:50 4,2 C 2,2 C 80 % 1031,6 hPa 0,0 l/m 0 min 0 min 0 W/m 20,9 km/h (4 Bft)
01.01.2015 16:52 4,2 C 2,2 C 80 % 1031,7 hPa 0,0 l/m 0 min 0 min 0 W/m 20,9 km/h (4 Bft)
01.01.2015 16:54 4,2 C 2,2 C 81 % 1031,7 hPa 0,0 l/m 0 min 0 min 0 W/m 20,9 km/h (4 Bft)
01.01.2015 16:56 4,1 C 2,2 C 81 % 1031,7 hPa 0,0 l/m 0 min 0 min 0 W/m 18,8 km/h (3 Bft)
01.01.2015 16:58 4,1 C 2,2 C 81 % 1031,5 hPa 0,0 l/m 0 min 0 min 0 W/m 16,7 km/h (3 Bft)
01.01.2015 17:00 4,1 C 2,2 C 81 % 1031,5 hPa 0,0 l/m 0 min 0 min 0 W/m 16,7 km/h (3 Bft)
01.01.2015 17:02 4,1 C 1,7 C 81 % 1031,6 hPa 0,0 l/m 0 min 0 min 0 W/m 12,6 km/h (3 Bft)
01.01.2015 17:04 4,0 C 1,7 C 81 % 1031,6 hPa 0,0 l/m 0 min 0 min 0 W/m 14,6 km/h (3 Bft)
01.01.2015 17:06 4,0 C 1,7 C 81 % 1031,5 hPa 0,0 l/m 0 min 0 min 0 W/m 20,9 km/h (4 Bft)
01.01.2015 17:08 4,0 C 1,7 C 81 % 1031,5 hPa 0,0 l/m 0 min 0 min 0 W/m 16,7 km/h (3 Bft)
01.01.2015 17:10 3,9 C 1,7 C 81 % 1031,5 hPa 0,0 l/m 0 min 0 min 0 W/m 14,6 km/h (3 Bft)
01.01.2015 17:12 3,9 C 1,7 C 82 % 1031,5 hPa 0,0 l/m 0 min 0 min 0 W/m 14,6 km/h (3 Bft)
01.01.2015 17:14 3,9 C 1,7 C 82 % 1031,5 hPa 0,0 l/m 0 min 0 min 0 W/m 12,6 km/h (3 Bft)
01.01.2015 17:16 3,9 C 1,7 C 82 % 1031,5 hPa 0,0 l/m 0 min 0 min 0 W/m 18,8 km/h (3 Bft)
01.01.2015 17:18 3,8 C 1,7 C 82 % 1031,4 hPa 0,0 l/m 0 min 0 min 0 W/m 12,6 km/h (3 Bft)
01.01.2015 17:20 3,8 C 1,7 C 82 % 1031,2 hPa 0,0 l/m 0 min 0 min 0 W/m 20,9 km/h (4 Bft)
01.01.2015 17:22 3,8 C 1,7 C 82 % 1031,2 hPa 0,0 l/m 0 min 0 min 0 W/m 23,0 km/h (4 Bft)
01.01.2015 17:24 3,8 C 1,7 C 82 % 1031,1 hPa 0,0 l/m 0 min 0 min 0 W/m 18,8 km/h (3 Bft)
01.01.2015 17:26 3,8 C 1,7 C 82 % 1031,1 hPa 0,0 l/m 0 min 0 min 0 W/m 16,7 km/h (3 Bft)
01.01.2015 17:28 3,8 C 1,7 C 83 % 1031,1 hPa 0,0 l/m 0 min 0 min 0 W/m 16,7 km/h (3 Bft)
01.01.2015 17:30 3,8 C 1,7 C 83 % 1031,1 hPa 0,0 l/m 0 min 0 min 0 W/m 20,9 km/h (4 Bft)
01.01.2015 17:32 3,7 C 1,7 C 83 % 1031,0 hPa 0,0 l/m 0 min 0 min 0 W/m 16,7 km/h (3 Bft)
01.01.2015 17:34 3,7 C 2,2 C 83 % 1031,0 hPa 0,0 l/m 0 min 0 min 0 W/m 23,0 km/h (4 Bft)
01.01.2015 17:36 3,7 C 2,2 C 83 % 1031,0 hPa 0,0 l/m 0 min 0 min 0 W/m 18,8 km/h (3 Bft)
01.01.2015 17:38 3,7 C 2,2 C 83 % 1030,8 hPa 0,0 l/m 0 min 0 min 0 W/m 12,6 km/h (3 Bft)
01.01.2015 17:40 3,7 C 2,2 C 83 % 1030,8 hPa 0,0 l/m 0 min 0 min 0 W/m 16,7 km/h (3 Bft)
01.01.2015 17:42 3,7 C 2,2 C 83 % 1030,6 hPa 0,0 l/m 0 min 0 min 0 W/m 27,2 km/h (4 Bft)
01.01.2015 17:44 3,7 C 2,2 C 83 % 1030,7 hPa 0,0 l/m 0 min 0 min 0 W/m 23,0 km/h (4 Bft)
01.01.2015 17:46 3,7 C 2,2 C 83 % 1030,6 hPa 0,0 l/m 0 min 0 min 0 W/m 16,7 km/h (3 Bft)
01.01.2015 17:48 3,7 C 2,2 C 83 % 1030,6 hPa 0,0 l/m 0 min 0 min 0 W/m 18,8 km/h (3 Bft)
01.01.2015 17:50 3,7 C 2,2 C 83 % 1030,5 hPa 0,0 l/m 0 min 0 min 0 W/m 20,9 km/h (4 Bft)
01.01.2015 17:52 3,7 C 2,2 C 83 % 1030,4 hPa 0,0 l/m 0 min 0 min 0 W/m 14,6 km/h (3 Bft)
01.01.2015 17:54 3,7 C 2,2 C 83 % 1030,3 hPa 0,0 l/m 0 min 0 min 0 W/m 29,3 km/h (5 Bft)
01.01.2015 17:56 3,7 C 2,2 C 83 % 1030,3 hPa 0,0 l/m 0 min 0 min 0 W/m 25,1 km/h (4 Bft)
01.01.2015 17:58 3,7 C 2,2 C 83 % 1030,3 hPa 0,0 l/m 0 min 0 min 0 W/m 18,8 km/h (3 Bft)
01.01.2015 18:00 3,7 C 2,2 C 83 % 1030,4 hPa 0,0 l/m 0 min 0 min 0 W/m 18,8 km/h (3 Bft)
01.01.2015 18:02 3,7 C 2,2 C 83 % 1030,5 hPa 0,0 l/m 0 min 0 min 0 W/m 18,8 km/h (3 Bft)
01.01.2015 18:06 3,8 C 2,2 C 83 % 1030,6 hPa 0,0 l/m 0 min 0 min 0 W/m 16,7 km/h (3 Bft)
01.01.2015 18:08 3,8 C 2,2 C 83 % 1030,7 hPa 0,0 l/m 0 min 0 min 0 W/m 16,7 km/h (3 Bft)
01.01.2015 18:10 3,8 C 2,2 C 82 % 1030,8 hPa 0,0 l/m 0 min 0 min 0 W/m 16,7 km/h (3 Bft)
01.01.2015 18:12 3,8 C 2,2 C 82 % 1030,6 hPa 0,0 l/m 0 min 0 min 0 W/m 10,5 km/h (2 Bft)
01.01.2015 18:14 3,7 C 2,2 C 82 % 1030,5 hPa 0,0 l/m 0 min 0 min 0 W/m 12,6 km/h (3 Bft)
01.01.2015 18:16 3,8 C 2,2 C 82 % 1030,4 hPa 0,0 l/m 0 min 0 min 0 W/m 16,7 km/h (3 Bft)
01.01.2015 18:18 3,7 C 1,7 C 82 % 1030,4 hPa 0,0 l/m 0 min 0 min 0 W/m 16,7 km/h (3 Bft)
01.01.2015 18:20 3,7 C 1,7 C 82 % 1030,6 hPa 0,0 l/m 0 min 0 min 0 W/m 16,7 km/h (3 Bft)
01.01.2015 18:22 3,7 C 1,7 C 82 % 1030,5 hPa 0,0 l/m 0 min 0 min 0 W/m 20,9 km/h (4 Bft)
01.01.2015 18:24 3,7 C 2,2 C 82 % 1030,6 hPa 0,0 l/m 0 min 0 min 0 W/m 14,6 km/h (3 Bft)
01.01.2015 18:26 3,7 C 2,2 C 83 % 1030,6 hPa 0,0 l/m 0 min 0 min 0 W/m 14,6 km/h (3 Bft)
01.01.2015 18:28 3,7 C 2,2 C 83 % 1030,6 hPa 0,0 l/m 0 min 0 min 0 W/m 23,0 km/h (4 Bft)
01.01.2015 18:30 3,7 C 2,2 C 83 % 1030,6 hPa 0,0 l/m 0 min 0 min 0 W/m 23,0 km/h (4 Bft)
01.01.2015 18:32 3,7 C 2,2 C 83 % 1030,5 hPa 0,0 l/m 0 min 0 min 0 W/m 20,9 km/h (4 Bft)
01.01.2015 18:34 3,7 C 2,2 C 82 % 1030,3 hPa 0,0 l/m 0 min 0 min 0 W/m 16,7 km/h (3 Bft)
01.01.2015 18:36 3,7 C 1,7 C 82 % 1030,4 hPa 0,0 l/m 0 min 0 min 0 W/m 23,0 km/h (4 Bft)
01.01.2015 18:38 3,7 C 2,2 C 82 % 1030,6 hPa 0,0 l/m 0 min 0 min 0 W/m 14,6 km/h (3 Bft)
01.01.2015 18:40 3,7 C 2,2 C 82 % 1030,7 hPa 0,0 l/m 0 min 0 min 0 W/m 14,6 km/h (3 Bft)
01.01.2015 18:42 3,7 C 2,2 C 82 % 1030,8 hPa 0,0 l/m 0 min 0 min 0 W/m 16,7 km/h (3 Bft)
01.01.2015 18:44 3,7 C 2,2 C 82 % 1030,6 hPa 0,0 l/m 0 min 0 min 0 W/m 14,6 km/h (3 Bft)
01.01.2015 18:46 3,7 C 2,2 C 82 % 1030,5 hPa 0,0 l/m 0 min 0 min 0 W/m 12,6 km/h (3 Bft)
01.01.2015 18:48 3,7 C 1,7 C 82 % 1030,5 hPa 0,0 l/m 0 min 0 min 0 W/m 18,8 km/h (3 Bft)
01.01.2015 18:50 3,7 C 1,7 C 82 % 1030,5 hPa 0,0 l/m 0 min 0 min 0 W/m 14,6 km/h (3 Bft)
01.01.2015 18:52 3,7 C 1,7 C 82 % 1030,5 hPa 0,0 l/m 0 min 0 min 0 W/m 16,7 km/h (3 Bft)
01.01.2015 18:54 3,7 C 1,7 C 82 % 1030,6 hPa 0,0 l/m 0 min 0 min 0 W/m 12,6 km/h (3 Bft)
01.01.2015 18:56 3,7 C 1,7 C 82 % 1030,6 hPa 0,0 l/m 0 min 0 min 0 W/m 10,5 km/h (2 Bft)
01.01.2015 18:58 3,7 C 1,7 C 82 % 1030,6 hPa 0,0 l/m 0 min 0 min 0 W/m 8,4 km/h (2 Bft)
01.01.2015 19:00 3,7 C 1,7 C 82 % 1030,6 hPa 0,0 l/m 0 min 0 min 0 W/m 12,6 km/h (3 Bft)
01.01.2015 19:02 3,7 C 1,7 C 82 % 1030,6 hPa 0,0 l/m 0 min 0 min 0 W/m 10,5 km/h (2 Bft)
01.01.2015 19:04 3,7 C 1,7 C 82 % 1030,5 hPa 0,0 l/m 0 min 0 min 0 W/m 14,6 km/h (3 Bft)
01.01.2015 19:06 3,6 C 1,7 C 82 % 1030,5 hPa 0,0 l/m 0 min 0 min 0 W/m 18,8 km/h (3 Bft)
01.01.2015 19:08 3,6 C 1,7 C 82 % 1030,4 hPa 0,0 l/m 0 min 0 min 0 W/m 20,9 km/h (4 Bft)
01.01.2015 19:10 3,6 C 1,7 C 82 % 1030,4 hPa 0,0 l/m 0 min 0 min 0 W/m 14,6 km/h (3 Bft)
01.01.2015 19:12 3,6 C 1,7 C 83 % 1030,5 hPa 0,0 l/m 0 min 0 min 0 W/m 14,6 km/h (3 Bft)
01.01.2015 19:14 3,6 C 1,7 C 83 % 1030,5 hPa 0,0 l/m 0 min 0 min 0 W/m 16,7 km/h (3 Bft)
01.01.2015 19:16 3,6 C 1,7 C 83 % 1030,4 hPa 0,0 l/m 0 min 0 min 0 W/m 16,7 km/h (3 Bft)
01.01.2015 19:18 3,5 C 1,7 C 83 % 1030,4 hPa 0,0 l/m 0 min 0 min 0 W/m 25,1 km/h (4 Bft)
01.01.2015 19:20 3,5 C 1,7 C 83 % 1030,4 hPa 0,0 l/m 0 min 0 min 0 W/m 16,7 km/h (3 Bft)
01.01.2015 19:22 3,5 C 1,7 C 83 % 1030,3 hPa 0,0 l/m 0 min 0 min 0 W/m 10,5 km/h (2 Bft)
01.01.2015 19:24 3,4 C 1,7 C 83 % 1030,4 hPa 0,0 l/m 0 min 0 min 0 W/m 12,6 km/h (3 Bft)
01.01.2015 19:26 3,4 C 1,7 C 83 % 1030,3 hPa 0,0 l/m 0 min 0 min 0 W/m 10,5 km/h (2 Bft)
01.01.2015 19:28 3,4 C 1,7 C 83 % 1030,3 hPa 0,0 l/m 0 min 0 min 0 W/m 12,6 km/h (3 Bft)
01.01.2015 19:30 3,4 C 1,7 C 83 % 1030,3 hPa 0,0 l/m 0 min 0 min 0 W/m 10,5 km/h (2 Bft)
01.01.2015 19:32 3,4 C 1,7 C 83 % 1030,2 hPa 0,0 l/m 0 min 0 min 0 W/m 12,6 km/h (3 Bft)
01.01.2015 19:34 3,4 C 1,7 C 83 % 1030,1 hPa 0,0 l/m 0 min 0 min 0 W/m 12,6 km/h (3 Bft)
01.01.2015 19:36 3,4 C 1,7 C 83 % 1030,1 hPa 0,0 l/m 0 min 0 min 0 W/m 16,7 km/h (3 Bft)
01.01.2015 19:38 3,4 C 1,7 C 83 % 1030,1 hPa 0,0 l/m 0 min 0 min 0 W/m 14,6 km/h (3 Bft)
01.01.2015 19:40 3,4 C 1,7 C 83 % 1030,1 hPa 0,0 l/m 0 min 0 min 0 W/m 12,6 km/h (3 Bft)
01.01.2015 19:42 3,4 C 1,7 C 83 % 1030,1 hPa 0,0 l/m 0 min 0 min 0 W/m 16,7 km/h (3 Bft)
01.01.2015 19:46 3,3 C 1,7 C 83 % 1029,9 hPa 0,0 l/m 0 min 0 min 0 W/m 14,6 km/h (3 Bft)
01.01.2015 19:48 3,3 C 1,7 C 84 % 1029,9 hPa 0,0 l/m 0 min 0 min 0 W/m 14,6 km/h (3 Bft)
01.01.2015 19:50 3,3 C 1,7 C 84 % 1029,9 hPa 0,0 l/m 0 min 0 min 0 W/m 10,5 km/h (2 Bft)
01.01.2015 19:52 3,3 C 1,7 C 84 % 1030,0 hPa 0,0 l/m 0 min 0 min 0 W/m 12,6 km/h (3 Bft)
01.01.2015 19:54 3,3 C 1,7 C 84 % 1030,0 hPa 0,0 l/m 0 min 0 min 0 W/m 18,8 km/h (3 Bft)
01.01.2015 19:56 3,3 C 1,7 C 84 % 1030,1 hPa 0,0 l/m 0 min 0 min 0 W/m 10,5 km/h (2 Bft)
01.01.2015 19:58 3,3 C 1,7 C 84 % 1030,1 hPa 0,0 l/m 0 min 0 min 0 W/m 12,6 km/h (3 Bft)
01.01.2015 20:00 3,3 C 1,7 C 84 % 1030,2 hPa 0,0 l/m 0 min 0 min 0 W/m 14,6 km/h (3 Bft)
01.01.2015 20:02 3,3 C 1,7 C 84 % 1030,0 hPa 0,0 l/m 0 min 0 min 0 W/m 14,6 km/h (3 Bft)
01.01.2015 20:04 3,3 C 1,7 C 84 % 1030,0 hPa 0,0 l/m 0 min 0 min 0 W/m 18,8 km/h (3 Bft)
01.01.2015 20:06 3,3 C 1,7 C 84 % 1030,0 hPa 0,0 l/m 0 min 0 min 0 W/m 18,8 km/h (3 Bft)
01.01.2015 20:08 3,3 C 1,7 C 84 % 1030,0 hPa 0,0 l/m 0 min 0 min 0 W/m 20,9 km/h (4 Bft)
01.01.2015 20:10 3,2 C 1,7 C 84 % 1030,1 hPa 0,0 l/m 0 min 0 min 0 W/m 14,6 km/h (3 Bft)
01.01.2015 20:12 3,2 C 1,7 C 84 % 1030,1 hPa 0,0 l/m 0 min 0 min 0 W/m 14,6 km/h (3 Bft)
01.01.2015 20:14 3,2 C 1,7 C 84 % 1030,2 hPa 0,0 l/m 0 min 0 min 0 W/m 12,6 km/h (3 Bft)
01.01.2015 20:16 3,2 C 1,7 C 84 % 1030,1 hPa 0,0 l/m 0 min 0 min 0 W/m 12,6 km/h (3 Bft)
01.01.2015 20:18 3,2 C 1,7 C 84 % 1030,1 hPa 0,0 l/m 0 min 0 min 0 W/m 12,6 km/h (3 Bft)
01.01.2015 20:20 3,2 C 1,7 C 84 % 1030,1 hPa 0,0 l/m 0 min 0 min 0 W/m 12,6 km/h (3 Bft)
01.01.2015 20:22 3,2 C 1,1 C 84 % 1030,0 hPa 0,0 l/m 0 min 0 min 0 W/m 14,6 km/h (3 Bft)
01.01.2015 20:24 3,2 C 1,1 C 84 % 1030,0 hPa 0,0 l/m 0 min 0 min 0 W/m 14,6 km/h (3 Bft)
01.01.2015 20:26 3,2 C 1,1 C 84 % 1030,0 hPa 0,0 l/m 0 min 0 min 0 W/m 14,6 km/h (3 Bft)
01.01.2015 20:28 3,2 C 1,1 C 84 % 1030,0 hPa 0,0 l/m 0 min 0 min 0 W/m 12,6 km/h (3 Bft)
01.01.2015 20:30 3,1 C 1,1 C 84 % 1029,9 hPa 0,0 l/m 0 min 0 min 0 W/m 12,6 km/h (3 Bft)
01.01.2015 20:32 3,1 C 1,1 C 84 % 1029,8 hPa 0,0 l/m 0 min 0 min 0 W/m 16,7 km/h (3 Bft)
01.01.2015 20:34 3,1 C 1,1 C 84 % 1029,9 hPa 0,0 l/m 0 min 0 min 0 W/m 18,8 km/h (3 Bft)
01.01.2015 20:36 3,1 C 1,1 C 84 % 1029,7 hPa 0,0 l/m 0 min 0 min 0 W/m 14,6 km/h (3 Bft)
01.01.2015 20:38 3,1 C 1,1 C 84 % 1029,7 hPa 0,0 l/m 0 min 0 min 0 W/m 14,6 km/h (3 Bft)
01.01.2015 20:40 3,0 C 1,1 C 84 % 1029,7 hPa 0,0 l/m 0 min 0 min 0 W/m 12,6 km/h (3 Bft)
01.01.2015 20:42 3,0 C 1,1 C 84 % 1029,7 hPa 0,0 l/m 0 min 0 min 0 W/m 12,6 km/h (3 Bft)
01.01.2015 20:44 2,9 C 1,1 C 84 % 1029,7 hPa 0,0 l/m 0 min 0 min 0 W/m 14,6 km/h (3 Bft)
01.01.2015 20:46 2,9 C 1,1 C 84 % 1029,6 hPa 0,0 l/m 0 min 0 min 0 W/m 16,7 km/h (3 Bft)
01.01.2015 20:48 2,9 C 0,6 C 84 % 1029,5 hPa 0,0 l/m 0 min 0 min 0 W/m 16,7 km/h (3 Bft)
01.01.2015 20:50 2,9 C 0,6 C 84 % 1029,4 hPa 0,0 l/m 0 min 0 min 0 W/m 16,7 km/h (3 Bft)
01.01.2015 20:52 2,8 C 0,6 C 84 % 1029,3 hPa 0,0 l/m 0 min 0 min 0 W/m 16,7 km/h (3 Bft)
01.01.2015 20:54 2,8 C 0,6 C 84 % 1029,4 hPa 0,0 l/m 0 min 0 min 0 W/m 18,8 km/h (3 Bft)
01.01.2015 20:56 2,7 C 0,6 C 84 % 1029,4 hPa 0,0 l/m 0 min 0 min 0 W/m 16,7 km/h (3 Bft)
01.01.2015 20:58 2,7 C 0,6 C 84 % 1029,3 hPa 0,0 l/m 0 min 0 min 0 W/m 18,8 km/h (3 Bft)
01.01.2015 21:00 2,7 C 0,6 C 85 % 1029,3 hPa 0,0 l/m 0 min 0 min 0 W/m 18,8 km/h (3 Bft)
01.01.2015 21:02 2,7 C 0,6 C 85 % 1029,2 hPa 0,0 l/m 0 min 0 min 0 W/m 18,8 km/h (3 Bft)
01.01.2015 21:04 2,6 C 0,6 C 85 % 1029,2 hPa 0,0 l/m 0 min 0 min 0 W/m 18,8 km/h (3 Bft)
01.01.2015 21:06 2,6 C 0,6 C 85 % 1029,1 hPa 0,0 l/m 0 min 0 min 0 W/m 18,8 km/h (3 Bft)
01.01.2015 21:08 2,6 C 1,1 C 85 % 1029,2 hPa 0,0 l/m 0 min 0 min 0 W/m 16,7 km/h (3 Bft)
01.01.2015 21:10 2,6 C 1,1 C 85 % 1029,2 hPa 0,0 l/m 0 min 0 min 0 W/m 14,6 km/h (3 Bft)
01.01.2015 21:12 2,5 C 1,1 C 85 % 1029,1 hPa 0,0 l/m 0 min 0 min 0 W/m 16,7 km/h (3 Bft)
01.01.2015 21:14 2,5 C 0,6 C 85 % 1029,0 hPa 0,0 l/m 0 min 0 min 0 W/m 18,8 km/h (3 Bft)
01.01.2015 21:16 2,5 C 1,1 C 85 % 1029,0 hPa 0,0 l/m 0 min 0 min 0 W/m 18,8 km/h (3 Bft)
01.01.2015 21:18 2,4 C 0,6 C 85 % 1029,0 hPa 0,0 l/m 0 min 0 min 0 W/m 14,6 km/h (3 Bft)
01.01.2015 21:20 2,4 C 0,6 C 85 % 1028,9 hPa 0,0 l/m 0 min 0 min 0 W/m 18,8 km/h (3 Bft)
01.01.2015 21:22 2,4 C 0,6 C 85 % 1028,8 hPa 0,0 l/m 0 min 0 min 0 W/m 18,8 km/h (3 Bft)
01.01.2015 21:24 2,4 C 0,6 C 86 % 1028,7 hPa 0,0 l/m 0 min 0 min 0 W/m 14,6 km/h (3 Bft)
01.01.2015 21:26 2,4 C 0,6 C 85 % 1028,8 hPa 0,0 l/m 0 min 0 min 0 W/m 16,7 km/h (3 Bft)
01.01.2015 21:28 2,4 C 0,6 C 85 % 1028,7 hPa 0,0 l/m 0 min 0 min 0 W/m 16,7 km/h (3 Bft)
01.01.2015 21:30 2,3 C 0,6 C 85 % 1028,8 hPa 0,0 l/m 0 min 0 min 0 W/m 14,6 km/h (3 Bft)
01.01.2015 21:32 2,3 C 0,6 C 85 % 1029,0 hPa 0,0 l/m 0 min 0 min 0 W/m 14,6 km/h (3 Bft)
01.01.2015 21:34 2,3 C 0,6 C 85 % 1029,0 hPa 0,0 l/m 0 min 0 min 0 W/m 12,6 km/h (3 Bft)
01.01.2015 21:36 2,3 C 0,6 C 85 % 1029,0 hPa 0,0 l/m 0 min 0 min 0 W/m 14,6 km/h (3 Bft)
01.01.2015 21:38 2,3 C 0,6 C 85 % 1029,0 hPa 0,0 l/m 0 min 0 min 0 W/m 10,5 km/h (2 Bft)
01.01.2015 21:40 2,3 C 0,6 C 85 % 1028,8 hPa 0,0 l/m 0 min 0 min 0 W/m 10,5 km/h (2 Bft)
01.01.2015 21:42 2,3 C 0,6 C 85 % 1029,0 hPa 0,0 l/m 0 min 0 min 0 W/m 14,6 km/h (3 Bft)
01.01.2015 21:44 2,3 C 0,6 C 85 % 1029,0 hPa 0,0 l/m 0 min 0 min 0 W/m 8,4 km/h (2 Bft)
01.01.2015 21:46 2,3 C 0,6 C 85 % 1028,8 hPa 0,0 l/m 0 min 0 min 0 W/m 12,6 km/h (3 Bft)
01.01.2015 21:48 2,2 C 0,0 C 85 % 1028,7 hPa 0,0 l/m 0 min 0 min 0 W/m 10,5 km/h (2 Bft)
01.01.2015 21:50 2,2 C 0,0 C 85 % 1028,6 hPa 0,0 l/m 0 min 0 min 0 W/m 8,4 km/h (2 Bft)
01.01.2015 21:52 2,2 C 0,0 C 85 % 1028,6 hPa 0,0 l/m 0 min 0 min 0 W/m 10,5 km/h (2 Bft)
01.01.2015 21:54 2,2 C 0,0 C 85 % 1028,7 hPa 0,0 l/m 0 min 0 min 0 W/m 12,6 km/h (3 Bft)
01.01.2015 21:56 2,2 C 0,0 C 85 % 1028,7 hPa 0,0 l/m 0 min 0 min 0 W/m 6,3 km/h (2 Bft)
01.01.2015 21:58 2,1 C 0,0 C 85 % 1028,8 hPa 0,0 l/m 0 min 0 min 0 W/m 8,4 km/h (2 Bft)
01.01.2015 22:00 2,1 C 0,0 C 85 % 1028,8 hPa 0,0 l/m 0 min 0 min 0 W/m 10,5 km/h (2 Bft)
01.01.2015 22:02 2,1 C 0,0 C 85 % 1028,9 hPa 0,0 l/m 0 min 0 min 0 W/m 8,4 km/h (2 Bft)
01.01.2015 22:04 2,1 C 0,0 C 85 % 1028,7 hPa 0,0 l/m 0 min 0 min 0 W/m 8,4 km/h (2 Bft)
01.01.2015 22:06 2,1 C 0,0 C 85 % 1028,8 hPa 0,0 l/m 0 min 0 min 0 W/m 8,4 km/h (2 Bft)
01.01.2015 22:08 2,0 C 0,0 C 85 % 1028,8 hPa 0,0 l/m 0 min 0 min 0 W/m 8,4 km/h (2 Bft)
01.01.2015 22:10 2,0 C 0,0 C 85 % 1028,7 hPa 0,0 l/m 0 min 0 min 0 W/m 8,4 km/h (2 Bft)
01.01.2015 22:12 2,0 C -0,6 C 85 % 1028,6 hPa 0,0 l/m 0 min 0 min 0 W/m 10,5 km/h (2 Bft)
01.01.2015 22:14 1,9 C 0,0 C 85 % 1028,5 hPa 0,0 l/m 0 min 0 min 0 W/m 10,5 km/h (2 Bft)
01.01.2015 22:16 1,9 C 0,0 C 85 % 1028,7 hPa 0,0 l/m 0 min 0 min 0 W/m 6,3 km/h (2 Bft)
01.01.2015 22:18 1,9 C 0,0 C 85 % 1028,6 hPa 0,0 l/m 0 min 0 min 0 W/m 6,3 km/h (2 Bft)
01.01.2015 22:20 1,9 C 0,0 C 85 % 1028,5 hPa 0,0 l/m 0 min 0 min 0 W/m 8,4 km/h (2 Bft)
01.01.2015 22:22 1,9 C 0,0 C 85 % 1028,3 hPa 0,0 l/m 0 min 0 min 0 W/m 12,6 km/h (3 Bft)
01.01.2015 22:24 1,9 C 0,0 C 85 % 1028,3 hPa 0,0 l/m 0 min 0 min 0 W/m 10,5 km/h (2 Bft)
01.01.2015 22:26 1,8 C 0,0 C 85 % 1028,3 hPa 0,0 l/m 0 min 0 min 0 W/m 12,6 km/h (3 Bft)
01.01.2015 22:28 1,8 C 0,0 C 85 % 1028,3 hPa 0,0 l/m 0 min 0 min 0 W/m 12,6 km/h (3 Bft)
01.01.2015 22:30 1,8 C 0,0 C 85 % 1028,2 hPa 0,0 l/m 0 min 0 min 0 W/m 14,6 km/h (3 Bft)
01.01.2015 22:32 1,8 C 0,0 C 85 % 1028,3 hPa 0,0 l/m 0 min 0 min 0 W/m 10,5 km/h (2 Bft)
01.01.2015 22:34 1,8 C 0,0 C 85 % 1028,2 hPa 0,0 l/m 0 min 0 min 0 W/m 8,4 km/h (2 Bft)
01.01.2015 22:36 1,8 C 0,0 C 85 % 1028,1 hPa 0,0 l/m 0 min 0 min 0 W/m 8,4 km/h (2 Bft)
01.01.2015 22:38 1,7 C 0,0 C 85 % 1027,9 hPa 0,0 l/m 0 min 0 min 0 W/m 10,5 km/h (2 Bft)
01.01.2015 22:40 1,7 C 0,0 C 85 % 1027,8 hPa 0,0 l/m 0 min 0 min 0 W/m 12,6 km/h (3 Bft)
01.01.2015 22:42 1,7 C 0,0 C 84 % 1027,8 hPa 0,0 l/m 0 min 0 min 0 W/m 12,6 km/h (3 Bft)
01.01.2015 22:44 1,7 C 0,0 C 84 % 1027,8 hPa 0,0 l/m 0 min 0 min 0 W/m 14,6 km/h (3 Bft)
01.01.2015 22:46 1,7 C 0,0 C 84 % 1027,7 hPa 0,0 l/m 0 min 0 min 0 W/m 10,5 km/h (2 Bft)
01.01.2015 22:48 1,7 C 0,0 C 84 % 1027,7 hPa 0,0 l/m 0 min 0 min 0 W/m 12,6 km/h (3 Bft)
01.01.2015 22:50 1,7 C 0,0 C 84 % 1027,7 hPa 0,0 l/m 0 min 0 min 0 W/m 12,6 km/h (3 Bft)
01.01.2015 22:52 1,7 C 0,0 C 84 % 1027,7 hPa 0,0 l/m 0 min 0 min 0 W/m 12,6 km/h (3 Bft)
01.01.2015 22:54 1,7 C 0,0 C 84 % 1027,6 hPa 0,0 l/m 0 min 0 min 0 W/m 12,6 km/h (3 Bft)
01.01.2015 22:56 1,7 C 0,0 C 84 % 1027,5 hPa 0,0 l/m 0 min 0 min 0 W/m 12,6 km/h (3 Bft)
01.01.2015 22:58 1,7 C 0,0 C 84 % 1027,5 hPa 0,0 l/m 0 min 0 min 0 W/m 12,6 km/h (3 Bft)
01.01.2015 23:00 1,7 C 0,0 C 84 % 1027,6 hPa 0,0 l/m 0 min 0 min 0 W/m 10,5 km/h (2 Bft)
01.01.2015 23:02 1,7 C 0,0 C 83 % 1027,6 hPa 0,0 l/m 0 min 0 min 0 W/m 10,5 km/h (2 Bft)
01.01.2015 23:04 1,7 C 0,0 C 83 % 1027,6 hPa 0,0 l/m 0 min 0 min 0 W/m 8,4 km/h (2 Bft)
01.01.2015 23:06 1,7 C 0,0 C 83 % 1027,5 hPa 0,0 l/m 0 min 0 min 0 W/m 14,6 km/h (3 Bft)
01.01.2015 23:08 1,8 C 0,0 C 83 % 1027,3 hPa 0,0 l/m 0 min 0 min 0 W/m 12,6 km/h (3 Bft)
01.01.2015 23:10 1,8 C 0,0 C 83 % 1027,3 hPa 0,0 l/m 0 min 0 min 0 W/m 12,6 km/h (3 Bft)
01.01.2015 23:12 1,8 C 0,0 C 83 % 1027,2 hPa 0,0 l/m 0 min 0 min 0 W/m 14,6 km/h (3 Bft)
01.01.2015 23:14 1,8 C 0,0 C 83 % 1027,2 hPa 0,0 l/m 0 min 0 min 0 W/m 10,5 km/h (2 Bft)
01.01.2015 23:16 1,8 C 0,0 C 82 % 1027,2 hPa 0,0 l/m 0 min 0 min 0 W/m 12,6 km/h (3 Bft)
01.01.2015 23:18 1,8 C 0,6 C 82 % 1027,2 hPa 0,0 l/m 0 min 0 min 0 W/m 14,6 km/h (3 Bft)
01.01.2015 23:20 1,8 C 0,0 C 82 % 1027,2 hPa 0,0 l/m 0 min 0 min 0 W/m 14,6 km/h (3 Bft)
01.01.2015 23:22 1,8 C 0,6 C 82 % 1027,1 hPa 0,0 l/m 0 min 0 min 0 W/m 14,6 km/h (3 Bft)
01.01.2015 23:24 1,8 C 0,6 C 82 % 1027,1 hPa 0,0 l/m 0 min 0 min 0 W/m 14,6 km/h (3 Bft)
01.01.2015 23:26 1,9 C 0,6 C 82 % 1027,2 hPa 0,0 l/m 0 min 0 min 0 W/m 12,6 km/h (3 Bft)
01.01.2015 23:28 1,9 C 0,6 C 82 % 1027,4 hPa 0,0 l/m 0 min 0 min 0 W/m 10,5 km/h (2 Bft)
01.01.2015 23:30 1,9 C 0,6 C 82 % 1027,3 hPa 0,0 l/m 0 min 0 min 0 W/m 10,5 km/h (2 Bft)
01.01.2015 23:32 1,9 C 0,6 C 82 % 1027,3 hPa 0,0 l/m 0 min 0 min 0 W/m 10,5 km/h (2 Bft)
01.01.2015 23:34 1,9 C 0,6 C 82 % 1027,2 hPa 0,0 l/m 0 min 0 min 0 W/m 14,6 km/h (3 Bft)
01.01.2015 23:36 1,9 C 0,6 C 82 % 1027,1 hPa 0,0 l/m 0 min 0 min 0 W/m 14,6 km/h (3 Bft)
01.01.2015 23:38 1,9 C 0,6 C 82 % 1027,0 hPa 0,0 l/m 0 min 0 min 0 W/m 23,0 km/h (4 Bft)
01.01.2015 23:40 1,9 C 0,6 C 82 % 1027,1 hPa 0,0 l/m 0 min 0 min 0 W/m 12,6 km/h (3 Bft)
01.01.2015 23:42 2,0 C 0,6 C 81 % 1027,1 hPa 0,0 l/m 0 min 0 min 0 W/m 8,4 km/h (2 Bft)
01.01.2015 23:44 2,0 C 0,6 C 81 % 1027,1 hPa 0,0 l/m 0 min 0 min 0 W/m 8,4 km/h (2 Bft)
01.01.2015 23:46 2,0 C 1,1 C 82 % 1027,2 hPa 0,0 l/m 0 min 0 min 0 W/m 16,7 km/h (3 Bft)
01.01.2015 23:48 2,1 C 1,1 C 81 % 1027,2 hPa 0,0 l/m 0 min 0 min 0 W/m 10,5 km/h (2 Bft)
01.01.2015 23:50 2,1 C 1,1 C 81 % 1027,2 hPa 0,0 l/m 0 min 0 min 0 W/m 16,7 km/h (3 Bft)
01.01.2015 23:52 2,2 C 1,7 C 81 % 1027,3 hPa 0,0 l/m 0 min 0 min 0 W/m 25,1 km/h (4 Bft)
01.01.2015 23:54 2,3 C 1,7 C 80 % 1027,4 hPa 0,0 l/m 0 min 0 min 0 W/m 20,9 km/h (4 Bft)
01.01.2015 23:56 2,4 C 2,2 C 80 % 1027,3 hPa 0,0 l/m 0 min 0 min 0 W/m 20,9 km/h (4 Bft)
01.01.2015 23:58 2,5 C 2,2 C 79 % 1027,3 hPa 0,0 l/m 0 min 0 min 0 W/m 20,9 km/h (4 Bft)
_ Min-Zeit 07:02 06:52 14:14 23:38 - - - - 05:28
Minimum _ -0,4 C -2,8 C 74 % 1027,0 hPa - - - - 2,1 km/h (1 Bft)
_ Max-Zeit 13:48 13:58 10:24 07:02 11:10 08:54 00:00 12:06 14:06
Maximum _ 5,9 C 4,4 C 98 % 1036,5 hPa 0,2 l/m 2 min 0 min 273 W/m 35,6 km/h
W-SW (5 Bft)
Durchschnitt _ 2,1 C 0,5 C 89 % 1033,2 hPa #0,2 l/m #6:10 h #0 min. 123 W/m 13,3 km/h (3 Bft)
© 2015 W. Hausmann